
Distance (Route):
Temperature : 2.4°C
Humidity : 54.3%
Pressure : 0hPa| Receiver | Frames | First received | Last received |
|---|---|---|---|
| DO3MHA-11 | 180 | 2026-09-05 23:31:26 | 2026-09-06 00:07:25 |
| IW2NTF | 149 | 2026-09-05 23:27:24 | 2026-09-06 00:20:00 |
| DB0UT-7 | 108 | 2026-09-05 23:14:51 | 2026-09-06 00:18:40 |
| DB0ND-19 | 88 | 2026-09-05 23:16:28 | 2026-09-06 00:17:30 |
| DO3MHA-12 | 53 | 2026-09-05 23:32:49 | 2026-09-06 00:06:55 |
| HASLITAL | 47 | 2026-09-05 23:37:17 | 2026-09-06 00:08:50 |
| HARRO8 | 37 | 2026-09-05 23:38:17 | 2026-09-05 23:59:32 |
| DL1ZP-14 | 11 | 2026-09-05 23:44:11 | 2026-09-05 23:54:33 |
| DH7VM-15 | 6 | 2026-09-05 23:33:31 | 2026-09-05 23:58:46 |
| DK5PH-5 | 6 | 2026-09-05 23:40:22 | 2026-09-05 23:58:07 |
| DF7PN | 6 | 2026-09-05 23:46:01 | 2026-09-05 23:53:16 |
| DB0NH | 1 | 2026-09-05 23:54:25 | 2026-09-05 23:54:25 |
| Receiver | Date | Latitude | Longitude | Direction | Speed | Altitude | Climb | Temperature | Humidity | Pressure | Voltage | Killtimer | Uptime | BKT | XDATA |
|---|---|---|---|---|---|---|---|---|---|---|---|---|---|---|---|
| IW2NTF | 2026-09-06 00:20:00 | 46.59299 | 7.75254 | 133° | 47km/h | 4399m | -5.5m/s | 2.4°C | 54.3% | 0hPa | 2.6V | 08:01:43 | 01:46:09 | 00:00:00 | |
| IW2NTF | 2026-09-06 00:19:54 | 46.59351 | 7.75179 | 134° | 47km/h | 4434m | -9.1m/s | 2.1°C | 54.9% | 0hPa | 2.6V | 08:01:49 | 01:46:03 | 00:00:00 | |
| IW2NTF | 2026-09-06 00:19:47 | 46.59402 | 7.75099 | 133° | 51km/h | 4470m | -4.3m/s | 1.9°C | 54.5% | 0hPa | 2.6V | 08:01:55 | 01:45:57 | 00:00:00 | |
| IW2NTF | 2026-09-06 00:19:42 | 46.59457 | 7.75016 | 136° | 51km/h | 4506m | -6.1m/s | 1.7°C | 55.1% | 0hPa | 2.7V | 08:02:01 | 01:45:51 | 00:00:00 | |
| IW2NTF | 2026-09-06 00:19:36 | 46.59512 | 7.74938 | 131° | 47km/h | 4545m | -8.1m/s | 1.4°C | 55.9% | 0hPa | 2.7V | 08:02:07 | 01:45:45 | 00:00:00 | |
| IW2NTF | 2026-09-06 00:19:30 | 46.59561 | 7.74858 | 131° | 49km/h | 4585m | -4.4m/s | 1.1°C | 56.6% | 0hPa | 2.7V | 08:02:13 | 01:45:39 | 00:00:00 | |
| IW2NTF | 2026-09-06 00:19:24 | 46.59612 | 7.74776 | 131° | 49km/h | 4627m | -5m/s | 1°C | 55.4% | 0hPa | 2.7V | 08:02:19 | 01:45:33 | 00:00:00 | |
| IW2NTF | 2026-09-06 00:19:16 | 46.59659 | 7.74690 | 126° | 51km/h | 4684m | -5.9m/s | 0.8°C | 54% | 0hPa | 2.7V | 08:02:25 | 01:45:27 | 00:00:00 | |
| IW2NTF | 2026-09-06 00:19:09 | 46.59705 | 7.74598 | 125° | 53km/h | 4722m | -5.8m/s | 0.6°C | 53.8% | 0hPa | 2.7V | 08:02:31 | 01:45:21 | 00:00:00 | |
| IW2NTF | 2026-09-06 00:19:04 | 46.59768 | 7.74467 | 126° | 53km/h | 4784m | -6.2m/s | 0.3°C | 52.9% | 0hPa | 2.6V | 08:02:39 | 01:45:13 | 00:00:00 | |
| IW2NTF | 2026-09-06 00:18:58 | 46.59816 | 7.74375 | 130° | 53km/h | 4823m | -6.1m/s | 0.3°C | 52.3% | 0hPa | 2.6V | 08:02:45 | 01:45:07 | 00:00:00 | |
| IW2NTF | 2026-09-06 00:18:52 | 46.59868 | 7.74286 | 129° | 53km/h | 4855m | -5.2m/s | 0.2°C | 50.6% | 0hPa | 2.6V | 08:02:51 | 01:45:01 | 00:00:00 | |
| IW2NTF | 2026-09-06 00:18:46 | 46.59920 | 7.74198 | 128° | 53km/h | 4893m | -7.3m/s | 0.1°C | 45.8% | 0hPa | 2.6V | 08:02:57 | 01:44:55 | 00:00:00 | |
| DB0UT-7 | 2026-09-06 00:18:40 | 46.59928 | 7.74183 | 131° | 55km/h | 4902m | -9.4m/s | 0.1°C | 44.0% | 0hPa | 2.6V | 00:00:00 | 00:00:00 | 00:00:00 | |
| IW2NTF | 2026-09-06 00:18:39 | 46.59971 | 7.74104 | 126° | 55km/h | 4932m | -3.6m/s | -0°C | 43.8% | 0hPa | 2.6V | 08:03:03 | 01:44:49 | 00:00:00 | |
| IW2NTF | 2026-09-06 00:18:33 | 46.60022 | 7.74011 | 130° | 53km/h | 4978m | -8.8m/s | -0.3°C | 44.1% | 0hPa | 2.6V | 08:03:09 | 01:44:43 | 00:00:00 | |
| IW2NTF | 2026-09-06 00:18:26 | 46.60073 | 7.73919 | 128° | 57km/h | 5018m | -8.7m/s | -0.4°C | 42.2% | 0hPa | 2.6V | 08:03:15 | 01:44:37 | 00:00:00 | |
| IW2NTF | 2026-09-06 00:18:13 | 46.60162 | 7.73765 | 133° | 53km/h | 5084m | -7.7m/s | -0.9°C | 42.4% | 0hPa | 2.7V | 08:03:25 | 01:44:27 | 00:00:00 | |
| IW2NTF | 2026-09-06 00:18:06 | 46.60258 | 7.73614 | 133° | 58km/h | 5142m | -6m/s | -1.3°C | 43% | 0hPa | 2.7V | 08:03:35 | 01:44:17 | 00:00:00 | |
| DB0UT-7 | 2026-09-06 00:18:00 | 46.60290 | 7.73568 | 136° | 57km/h | 5159m | -6.8m/s | -1.3°C | 42.2% | 0hPa | 2.6V | 00:00:00 | 01:44:14 | 00:00:00 | |
| IW2NTF | 2026-09-06 00:17:53 | 46.60365 | 7.73464 | 136° | 57km/h | 5206m | -7.4m/s | -1.4°C | 40.4% | 0hPa | 2.6V | 08:03:45 | 01:44:07 | 00:00:00 | |
| IW2NTF | 2026-09-06 00:17:48 | 46.60472 | 7.73319 | 136° | 57km/h | 5274m | -7.9m/s | -1.7°C | 39.9% | 0hPa | 2.7V | 08:03:55 | 01:43:57 | 00:00:00 | |
| IW2NTF | 2026-09-06 00:17:36 | 46.60580 | 7.73175 | 136° | 60km/h | 5344m | -6.6m/s | -2°C | 40.4% | 0hPa | 2.7V | 08:04:05 | 01:43:47 | 00:00:00 | |
| DB0ND-19 | 2026-09-06 00:17:30 | 46.60613 | 7.73130 | 136° | 57km/h | 5375m | -12.9m/s | -2.3°C | 39.6% | -1.0hPa | 2.7V | 00:00:00 | 00:00:00 | 00:00:00 | |
| IW2NTF | 2026-09-06 00:17:23 | 46.60686 | 7.73033 | 136° | 57km/h | 5421m | -6.2m/s | -2.6°C | 40.9% | 0hPa | 2.7V | 08:04:15 | 01:43:37 | 00:00:00 | |
| IW2NTF | 2026-09-06 00:17:18 | 46.60792 | 7.72891 | 138° | 55km/h | 5480m | -5m/s | -3.1°C | 41.9% | 0hPa | 2.7V | 08:04:25 | 01:43:27 | 00:00:00 | |
| DB0UT-7 | 2026-09-06 00:17:18 | 46.60739 | 7.72961 | 137° | 51km/h | 5453m | -6.3m/s | -2.9°C | 41.6% | 0hPa | 2.6V | 00:00:00 | 00:00:00 | 00:00:00 | |
| IW2NTF | 2026-09-06 00:17:07 | 46.60890 | 7.72761 | 137° | 53km/h | 5543m | -4.7m/s | -3.4°C | 40.4% | 0hPa | 2.6V | 08:04:35 | 01:43:17 | 00:00:00 | |
| IW2NTF | 2026-09-06 00:16:54 | 46.60983 | 7.72625 | 134° | 47km/h | 5601m | -5.2m/s | -3.7°C | 39.3% | 0hPa | 2.6V | 08:04:45 | 01:43:07 | 00:00:00 | |
| IW2NTF | 2026-09-06 00:16:47 | 46.61069 | 7.72499 | 132° | 49km/h | 5667m | -4.8m/s | -4.1°C | 38.5% | 0hPa | 2.7V | 08:04:55 | 01:42:57 | 00:00:00 | |
| DB0UT-7 | 2026-09-06 00:16:43 | 46.61069 | 7.72499 | 133° | 47km/h | 5667m | -4.7m/s | -4.1°C | 38.5% | 0hPa | 2.7V | 08:04:00 | 01:42:57 | 00:00:00 | |
| IW2NTF | 2026-09-06 00:16:34 | 46.61148 | 7.72367 | 132° | 49km/h | 5724m | -6.4m/s | -4.4°C | 37.2% | 0hPa | 2.6V | 08:05:05 | 01:42:47 | 00:00:00 | |
| DB0ND-19 | 2026-09-06 00:16:28 | 46.61189 | 7.72299 | 129° | 47km/h | 5755m | -7.9m/s | -4.6°C | 35.9% | -1.0hPa | 2.7V | 00:00:00 | 00:00:00 | 00:00:00 | |
| IW2NTF | 2026-09-06 00:16:27 | 46.61227 | 7.72231 | 128° | 47km/h | 5786m | -4.7m/s | -4.8°C | 37.4% | 0hPa | 2.7V | 08:05:15 | 01:42:37 | 00:00:00 | |
| IW2NTF | 2026-09-06 00:16:14 | 46.61301 | 7.72100 | 129° | 49km/h | 5856m | -6.3m/s | -5.1°C | 33.2% | 0hPa | 2.7V | 08:05:25 | 01:42:27 | 00:00:00 | |
| DB0UT-7 | 2026-09-06 00:16:13 | 46.61301 | 7.72099 | 130° | 51km/h | 5856m | -6.2m/s | -5.0°C | 33.2% | 0hPa | 2.7V | 00:00:00 | 00:00:00 | 00:00:00 | |
| IW2NTF | 2026-09-06 00:16:07 | 46.61377 | 7.71968 | 127° | 49km/h | 5919m | -6.3m/s | -5.6°C | 32.9% | 0hPa | 2.7V | 08:05:35 | 01:42:17 | 00:00:00 | |
| DB0ND-19 | 2026-09-06 00:15:57 | 46.61424 | 7.71880 | 130° | 51km/h | 5955m | -6.4m/s | -5.9°C | 32.4% | -1.0hPa | 2.6V | 00:00:00 | 00:00:00 | 00:00:00 | |
| IW2NTF | 2026-09-06 00:15:54 | 46.61467 | 7.71808 | 129° | 53km/h | 5990m | -5.5m/s | -6.2°C | 34.2% | 0hPa | 2.6V | 08:05:46 | 01:42:06 | 00:00:00 | |
| IW2NTF | 2026-09-06 00:15:47 | 46.61550 | 7.71660 | 126° | 55km/h | 6057m | -9.6m/s | -6.8°C | 38.4% | 0hPa | 2.6V | 08:05:56 | 01:41:56 | 00:00:00 | |
| DB0UT-7 | 2026-09-06 00:15:38 | 46.61583 | 7.71599 | 131° | 51km/h | 6089m | -6.8m/s | -7.0°C | 38.7% | 0hPa | 2.6V | 00:00:00 | 01:41:52 | 00:00:00 | |
| IW2NTF | 2026-09-06 00:15:34 | 46.61635 | 7.71507 | 127° | 53km/h | 6135m | -7.8m/s | -7.5°C | 39.6% | 0hPa | 2.6V | 08:06:06 | 01:41:46 | 00:00:00 | |
| IW2NTF | 2026-09-06 00:15:23 | 46.61711 | 7.71352 | 123° | 53km/h | 6197m | -5.4m/s | -8.1°C | 41.6% | 0hPa | 2.7V | 08:06:16 | 01:41:36 | 00:00:00 | |
| IW2NTF | 2026-09-06 00:15:18 | 46.61780 | 7.71189 | 122° | 49km/h | 6262m | -5.7m/s | -8.5°C | 38.7% | 0hPa | 2.7V | 08:06:26 | 01:41:26 | 00:00:00 | |
| DB0UT-7 | 2026-09-06 00:15:08 | 46.61806 | 7.71126 | 119° | 53km/h | 6290m | -11.5m/s | -8.7°C | 39.2% | 0hPa | 2.6V | 00:00:00 | 00:00:00 | 00:00:00 | |
| IW2NTF | 2026-09-06 00:15:07 | 46.61843 | 7.71024 | 119° | 53km/h | 6330m | -6.6m/s | -9.2°C | 39.4% | 0hPa | 2.6V | 08:06:36 | 01:41:16 | 00:00:00 | |
| IW2NTF | 2026-09-06 00:14:55 | 46.61906 | 7.70857 | 115° | 51km/h | 6388m | -3.4m/s | -9.6°C | 40.3% | 0hPa | 2.7V | 08:06:46 | 01:41:06 | 00:00:00 | |
| DB0ND-19 | 2026-09-06 00:14:55 | 46.61927 | 7.70787 | 113° | 51km/h | 6410m | -8.3m/s | -9.8°C | 39.8% | -1.0hPa | 2.7V | 00:00:00 | 00:00:00 | 00:00:00 | |
| IW2NTF | 2026-09-06 00:14:42 | 46.61963 | 7.70681 | 118° | 53km/h | 6461m | -6.7m/s | -10.2°C | 42.5% | 0hPa | 2.7V | 08:06:56 | 01:40:56 | 00:00:00 | |
| IW2NTF | 2026-09-06 00:14:37 | 46.62029 | 7.70514 | 117° | 51km/h | 6525m | -5.3m/s | -10.6°C | 42% | 0hPa | 2.7V | 08:07:06 | 01:40:46 | 00:00:00 | |
| DB0UT-7 | 2026-09-06 00:14:31 | 46.62035 | 7.70497 | 119° | 53km/h | 6532m | -6.9m/s | -10.6°C | 40.9% | 0hPa | 2.7V | 00:00:00 | 01:40:45 | 00:00:00 | |
| IW2NTF | 2026-09-06 00:14:27 | 46.62089 | 7.70342 | 116° | 53km/h | 6608m | -7.2m/s | -11.1°C | 38.3% | 0hPa | 2.7V | 08:07:16 | 01:40:36 | 00:00:00 | |
| DB0ND-19 | 2026-09-06 00:14:24 | 46.62089 | 7.70342 | 116° | 51km/h | 6608m | -7.2m/s | -11.1°C | 36.8% | -1.0hPa | 2.7V | 00:00:00 | 00:00:00 | 00:00:00 | |
| IW2NTF | 2026-09-06 00:14:14 | 46.62150 | 7.70165 | 114° | 53km/h | 6665m | -6.3m/s | -11.6°C | 38.2% | 0hPa | 2.7V | 08:07:26 | 01:40:26 | 00:00:00 | |
| IW2NTF | 2026-09-06 00:14:07 | 46.62205 | 7.69989 | 113° | 55km/h | 6735m | -7.8m/s | -12.1°C | 40.2% | 0hPa | 2.6V | 08:07:36 | 01:40:16 | 00:00:00 | |
| DB0UT-7 | 2026-09-06 00:14:01 | 46.62210 | 7.69970 | 113° | 53km/h | 6741m | -5.0m/s | -12.1°C | 40.4% | 0hPa | 2.6V | 00:00:00 | 00:00:00 | 00:00:00 | |
| IW2NTF | 2026-09-06 00:13:57 | 46.62259 | 7.69809 | 113° | 51km/h | 6794m | -5.2m/s | -12.6°C | 43.7% | 0hPa | 2.6V | 08:07:46 | 01:40:06 | 00:00:00 | |
| DB0ND-19 | 2026-09-06 00:13:53 | 46.62259 | 7.69809 | 113° | 51km/h | 6794m | -5.2m/s | -12.6°C | 42.0% | -1.0hPa | 2.7V | 00:00:00 | 00:00:00 | 00:00:00 | |
| IW2NTF | 2026-09-06 00:13:47 | 46.62318 | 7.69634 | 116° | 53km/h | 6859m | -6.1m/s | -13.2°C | 44.2% | 0hPa | 2.7V | 08:07:56 | 01:39:56 | 00:00:00 | |
| IW2NTF | 2026-09-06 00:13:37 | 46.62383 | 7.69463 | 117° | 55km/h | 6934m | -8.1m/s | -13.9°C | 46.5% | 0hPa | 2.7V | 08:08:06 | 01:39:46 | 00:00:00 | |
| DB0UT-7 | 2026-09-06 00:13:31 | 46.62389 | 7.69445 | 117° | 55km/h | 6943m | -9.2m/s | -13.9°C | 46.9% | 0hPa | 2.7V | 00:00:00 | 01:39:45 | 00:00:00 | |
| IW2NTF | 2026-09-06 00:13:27 | 46.62443 | 7.69286 | 116° | 53km/h | 7005m | -4.2m/s | -14.5°C | 51.9% | 0hPa | 2.7V | 08:08:16 | 01:39:36 | 00:00:00 | |
| DB0ND-19 | 2026-09-06 00:13:22 | 46.62449 | 7.69268 | 116° | 53km/h | 7009m | -5.1m/s | -14.6°C | 50.3% | -1.0hPa | 2.6V | 00:00:00 | 00:00:00 | 00:00:00 | |
| IW2NTF | 2026-09-06 00:13:17 | 46.62507 | 7.69105 | 115° | 55km/h | 7070m | -8.2m/s | -15.2°C | 56.5% | 0hPa | 2.6V | 08:08:26 | 01:39:26 | 00:00:00 | |
| IW2NTF | 2026-09-06 00:13:07 | 46.62568 | 7.68923 | 118° | 57km/h | 7143m | -6.7m/s | -15.8°C | 60.2% | 0hPa | 2.7V | 08:08:36 | 01:39:16 | 00:00:00 | |
| DB0UT-7 | 2026-09-06 00:13:01 | 46.62575 | 7.68904 | 119° | 58km/h | 7150m | -6.8m/s | -15.8°C | 60.3% | 0hPa | 2.6V | 00:00:00 | 00:00:00 | 00:00:00 | |
| IW2NTF | 2026-09-06 00:12:57 | 46.62633 | 7.68733 | 114° | 58km/h | 7209m | -8.5m/s | -16.4°C | 60.9% | 0hPa | 2.6V | 08:08:46 | 01:39:06 | 00:00:00 | |
| DB0ND-19 | 2026-09-06 00:12:51 | 46.62646 | 7.68694 | 116° | 58km/h | 7225m | -6.2m/s | -16.5°C | 57.6% | -1.0hPa | 2.6V | 00:00:00 | 00:00:00 | 00:00:00 | |
| IW2NTF | 2026-09-06 00:12:47 | 46.62698 | 7.68543 | 116° | 57km/h | 7278m | -4.9m/s | -16.8°C | 55.7% | 0hPa | 2.6V | 08:08:56 | 01:38:56 | 00:00:00 | |
| IW2NTF | 2026-09-06 00:12:31 | 46.62770 | 7.68330 | 116° | 62km/h | 7356m | -10m/s | -17.5°C | 53.6% | 0hPa | 2.5V | 08:09:07 | 01:38:45 | 00:00:00 | |
| DB0UT-7 | 2026-09-06 00:12:31 | 46.62770 | 7.68330 | 117° | 60km/h | 7357m | -10.0m/s | -17.4°C | 53.6% | 0hPa | 2.5V | 00:00:00 | 01:38:45 | 00:00:00 | |
| IW2NTF | 2026-09-06 00:12:25 | 46.62844 | 7.68096 | 114° | 60km/h | 7436m | -7m/s | -18.1°C | 55.1% | 0hPa | 2.5V | 08:09:19 | 01:38:33 | 00:00:00 | |
| DB0ND-19 | 2026-09-06 00:12:20 | 46.62844 | 7.68096 | 114° | 58km/h | 7436m | -7.0m/s | -18.1°C | 52.4% | -1.0hPa | 2.7V | 00:00:00 | 00:00:00 | 00:00:00 | |
| IW2NTF | 2026-09-06 00:12:14 | 46.62910 | 7.67900 | 117° | 58km/h | 7511m | -6.5m/s | -18.7°C | 54.4% | 0hPa | 2.7V | 08:09:29 | 01:38:23 | 00:00:00 | |
| DB0UT-7 | 2026-09-06 00:12:01 | 46.62968 | 7.67745 | 121° | 58km/h | 7564m | -5.9m/s | -18.9°C | 51.3% | 0hPa | 2.5V | 08:09:00 | 00:00:00 | 00:00:00 | |
| IW2NTF | 2026-09-06 00:11:59 | 46.62983 | 7.67708 | 119° | 60km/h | 7577m | -5.8m/s | -19°C | 51.4% | 0hPa | 2.6V | 08:09:39 | 01:38:13 | 00:00:00 | |
| IW2NTF | 2026-09-06 00:11:54 | 46.63061 | 7.67523 | 122° | 58km/h | 7642m | -5.7m/s | -19.4°C | 47.1% | 0hPa | 2.7V | 08:09:49 | 01:38:03 | 00:00:00 | |
| DB0ND-19 | 2026-09-06 00:11:49 | 46.63069 | 7.67504 | 123° | 58km/h | 7648m | -6.6m/s | -19.4°C | 44.1% | -1.0hPa | 2.5V | 00:00:00 | 00:00:00 | 00:00:00 | |
| IW2NTF | 2026-09-06 00:11:39 | 46.63140 | 7.67344 | 118° | 57km/h | 7713m | -7.1m/s | -19.8°C | 43.5% | 0hPa | 2.5V | 08:09:59 | 01:37:53 | 00:00:00 | |
| IW2NTF | 2026-09-06 00:11:34 | 46.63209 | 7.67162 | 121° | 57km/h | 7778m | -7m/s | -20.3°C | 44.5% | 0hPa | 2.7V | 08:10:09 | 01:37:43 | 00:00:00 | |
| DB0UT-7 | 2026-09-06 00:11:31 | 46.63194 | 7.67198 | 121° | 53km/h | 7765m | -8.0m/s | -20.2°C | 43.8% | 0hPa | 2.5V | 00:00:00 | 01:37:45 | 00:00:00 | |
| IW2NTF | 2026-09-06 00:11:21 | 46.63280 | 7.66995 | 121° | 55km/h | 7847m | -8.3m/s | -20.9°C | 47.5% | 0hPa | 2.5V | 08:10:19 | 01:37:33 | 00:00:00 | |
| IW2NTF | 2026-09-06 00:11:14 | 46.63348 | 7.66833 | 120° | 53km/h | 7925m | -6.8m/s | -21.4°C | 41.8% | 0hPa | 2.7V | 08:10:29 | 01:37:23 | 00:00:00 | |
| IW2NTF | 2026-09-06 00:11:01 | 46.63408 | 7.66664 | 113° | 51km/h | 7993m | -4.8m/s | -22°C | 39.6% | 0hPa | 2.5V | 08:10:39 | 01:37:13 | 00:00:00 | |
| DB0UT-7 | 2026-09-06 00:11:01 | 46.63397 | 7.66698 | 116° | 53km/h | 7980m | -8.9m/s | -21.9°C | 41.4% | 0hPa | 2.5V | 00:00:00 | 00:00:00 | 00:00:00 | |
| IW2NTF | 2026-09-06 00:10:54 | 46.63465 | 7.66489 | 111° | 49km/h | 8062m | -11.1m/s | -22.3°C | 35.8% | 0hPa | 2.5V | 08:10:49 | 01:37:03 | 00:00:00 | |
| DB0ND-19 | 2026-09-06 00:10:47 | 46.63479 | 7.66437 | 109° | 49km/h | 8088m | -6.2m/s | -22.5°C | 32.7% | -1.0hPa | 2.7V | 00:00:00 | 00:00:00 | 00:00:00 | |
| IW2NTF | 2026-09-06 00:10:41 | 46.63508 | 7.66309 | 110° | 53km/h | 8137m | -6.2m/s | -22.9°C | 34.2% | 0hPa | 2.7V | 08:10:59 | 01:36:53 | 00:00:00 | |
| IW2NTF | 2026-09-06 00:10:34 | 46.63559 | 7.66125 | 113° | 57km/h | 8216m | -5.1m/s | -23.5°C | 35.8% | 0hPa | 2.5V | 08:11:09 | 01:36:43 | 00:00:00 | |
| DB0UT-7 | 2026-09-06 00:10:31 | 46.63548 | 7.66163 | 113° | 53km/h | 8202m | -9.6m/s | -23.3°C | 35.2% | 0hPa | 2.7V | 00:00:00 | 01:36:45 | 00:00:00 | |
| IW2NTF | 2026-09-06 00:10:21 | 46.63610 | 7.65941 | 107° | 53km/h | 8278m | -6.3m/s | -24.1°C | 36.9% | 0hPa | 2.6V | 08:11:19 | 01:36:33 | 00:00:00 | |
| DB0ND-19 | 2026-09-06 00:10:15 | 46.63628 | 7.65866 | 109° | 51km/h | 8308m | -5.3m/s | -24.3°C | 34.0% | -1.0hPa | 2.5V | 00:00:00 | 00:00:00 | 00:00:00 | |
| IW2NTF | 2026-09-06 00:10:14 | 46.63658 | 7.65763 | 113° | 49km/h | 8351m | -5.6m/s | -24.6°C | 35.9% | 0hPa | 2.5V | 08:11:29 | 01:36:23 | 00:00:00 | |
| DB0UT-7 | 2026-09-06 00:10:01 | 46.63696 | 7.65627 | 110° | 53km/h | 8409m | -8.5m/s | -25.0°C | 33.8% | 0hPa | 2.7V | 00:00:00 | 00:00:00 | 00:00:00 | |
| IW2NTF | 2026-09-06 00:09:57 | 46.63719 | 7.65540 | 112° | 51km/h | 8440m | -10m/s | -25.3°C | 32.8% | 0hPa | 2.7V | 08:11:42 | 01:36:10 | 00:00:00 | |
| IW2NTF | 2026-09-06 00:09:47 | 46.63774 | 7.65368 | 115° | 55km/h | 8508m | -6.2m/s | -25.7°C | 27.8% | 0hPa | 2.5V | 08:11:52 | 01:36:00 | 00:00:00 | |
| DB0ND-19 | 2026-09-06 00:09:44 | 46.63785 | 7.65331 | 112° | 53km/h | 8519m | -5.3m/s | -25.8°C | 25.1% | -1.0hPa | 2.7V | 00:00:00 | 00:00:00 | 00:00:00 | |
| IW2NTF | 2026-09-06 00:09:37 | 46.63821 | 7.65181 | 107° | 57km/h | 8569m | -6.8m/s | -26.2°C | 27.2% | 0hPa | 2.7V | 08:12:02 | 01:35:50 | 00:00:00 | |
| DB0UT-7 | 2026-09-06 00:09:31 | 46.63847 | 7.65080 | 112° | 58km/h | 8607m | -6.3m/s | -26.5°C | 27.4% | 0hPa | 2.5V | 00:00:00 | 01:35:45 | 00:00:00 | |
| IW2NTF | 2026-09-06 00:09:27 | 46.63872 | 7.64979 | 106° | 58km/h | 8644m | -7.6m/s | -26.9°C | 26.1% | 0hPa | 2.5V | 08:12:12 | 01:35:40 | 00:00:00 | |
| IW2NTF | 2026-09-06 00:09:18 | 46.63907 | 7.64774 | 105° | 55km/h | 8715m | -10m/s | -27.2°C | 22.1% | 0hPa | 2.5V | 08:12:22 | 01:35:30 | 00:00:00 | |
| DB0ND-19 | 2026-09-06 00:09:13 | 46.63919 | 7.64714 | 105° | 57km/h | 8737m | -5.3m/s | -27.3°C | 19.1% | -1.0hPa | 2.5V | 00:00:00 | 00:00:00 | 00:00:00 | |
| IW2NTF | 2026-09-06 00:09:07 | 46.63947 | 7.64566 | 104° | 58km/h | 8786m | -5.6m/s | -27.5°C | 19.5% | 0hPa | 2.5V | 08:12:32 | 01:35:20 | 00:00:00 | |
| IW2NTF | 2026-09-06 00:09:01 | 46.63980 | 7.64359 | 98° | 55km/h | 8850m | -9.7m/s | -27.9°C | 17.8% | 0hPa | 2.7V | 08:12:42 | 01:35:10 | 00:00:00 | |
| DB0UT-7 | 2026-09-06 00:09:01 | 46.63967 | 7.64461 | 103° | 57km/h | 8818m | -8.4m/s | -27.7°C | 18.7% | 0hPa | 2.6V | 00:00:00 | 00:00:00 | 00:00:00 | |
| HASLITAL | 2026-09-06 00:08:50 | 46.63990 | 7.64260 | 101° | 55km/h | 8885m | -4.6m/s | -28.1°C | 15.0% | 0hPa | 2.5V | 00:00:00 | 00:00:00 | 00:00:00 | |
| IW2NTF | 2026-09-06 00:08:47 | 46.64006 | 7.64159 | 103° | 57km/h | 8920m | -9.7m/s | -28.3°C | 16.4% | 0hPa | 2.5V | 08:12:52 | 01:35:00 | 00:00:00 | |
| DB0ND-19 | 2026-09-06 00:08:42 | 46.64016 | 7.64077 | 98° | 57km/h | 8953m | -8.7m/s | -28.6°C | 14.8% | -1.0hPa | 2.5V | 00:00:00 | 00:00:00 | 00:00:00 | |
| IW2NTF | 2026-09-06 00:08:41 | 46.64035 | 7.63959 | 109° | 55km/h | 8993m | -7.1m/s | -28.9°C | 17.5% | 0hPa | 2.5V | 08:13:02 | 01:34:50 | 00:00:00 | |
| DB0UT-7 | 2026-09-06 00:08:31 | 46.64059 | 7.63860 | 104° | 57km/h | 9029m | -11.0m/s | -29.2°C | 17.6% | 0hPa | 2.5V | 00:00:00 | 01:34:45 | 00:00:00 | |
| IW2NTF | 2026-09-06 00:08:27 | 46.64072 | 7.63751 | 98° | 60km/h | 9077m | -6.8m/s | -29.8°C | 18.4% | 0hPa | 2.5V | 08:13:12 | 01:34:40 | 00:00:00 | |
| IW2NTF | 2026-09-06 00:08:21 | 46.64103 | 7.63546 | 101° | 57km/h | 9157m | -9.1m/s | -30.5°C | 19.5% | 0hPa | 2.5V | 08:13:22 | 01:34:30 | 00:00:00 | |
| DB0ND-19 | 2026-09-06 00:08:11 | 46.64118 | 7.63444 | 101° | 53km/h | 9199m | -7.4m/s | -30.9°C | 18.0% | -1.0hPa | 2.5V | 00:00:00 | 00:00:00 | 00:00:00 | |
| IW2NTF | 2026-09-06 00:08:03 | 46.64137 | 7.63280 | 98° | 57km/h | 9264m | -6.9m/s | -31.4°C | 20.5% | 0hPa | 2.5V | 08:13:35 | 01:34:17 | 00:00:00 | |
| DB0UT-7 | 2026-09-06 00:08:01 | 46.64141 | 7.63240 | 101° | 57km/h | 9277m | -7.0m/s | -31.5°C | 20.0% | 0hPa | 2.5V | 00:00:00 | 00:00:00 | 00:00:00 | |
| IW2NTF | 2026-09-06 00:07:53 | 46.64167 | 7.63073 | 104° | 60km/h | 9331m | -6.3m/s | -31.9°C | 19.2% | 0hPa | 2.5V | 08:13:45 | 01:34:07 | 00:00:00 | |
| IW2NTF | 2026-09-06 00:07:43 | 46.64203 | 7.62868 | 104° | 57km/h | 9394m | -9.4m/s | -32.4°C | 19.7% | 0hPa | 2.6V | 08:13:55 | 01:33:57 | 00:00:00 | |
| DB0ND-19 | 2026-09-06 00:07:40 | 46.64214 | 7.62808 | 104° | 57km/h | 9411m | -5.4m/s | -32.6°C | 17.3% | -1.0hPa | 2.5V | 00:00:00 | 00:00:00 | 00:00:00 | |
| IW2NTF | 2026-09-06 00:07:33 | 46.64240 | 7.62666 | 104° | 57km/h | 9469m | -8.6m/s | -33°C | 18.6% | 0hPa | 2.5V | 08:14:05 | 01:33:47 | 00:00:00 | |
| DB0UT-7 | 2026-09-06 00:07:31 | 46.64246 | 7.62625 | 103° | 58km/h | 9483m | -4.6m/s | -33.0°C | 18.7% | 0hPa | 2.7V | 08:14:00 | 01:33:45 | 00:00:00 | |
| DO3MHA-11 | 2026-09-06 00:07:25 | 46.64264 | 7.62497 | 103° | 58km/h | 9527m | -7.1m/s | -33.4°C | 17.2% | 0hPa | 2.5V | 00:00:00 | 01:33:39 | 00:00:00 | |
| IW2NTF | 2026-09-06 00:07:24 | 46.64271 | 7.62452 | 102° | 62km/h | 9538m | -5.8m/s | -33.5°C | 17.2% | 0hPa | 2.5V | 08:14:15 | 01:33:37 | 00:00:00 | |
| IW2NTF | 2026-09-06 00:07:17 | 46.64305 | 7.62248 | 104° | 53km/h | 9603m | -6.2m/s | -34°C | 17.7% | 0hPa | 2.7V | 08:14:25 | 01:33:27 | 00:00:00 | |
| DO3MHA-11 | 2026-09-06 00:07:15 | 46.64299 | 7.62285 | 105° | 57km/h | 9591m | -5.8m/s | -33.9°C | 17.7% | 0hPa | 2.5V | 08:14:00 | 01:33:29 | 00:00:00 | |
| DB0ND-19 | 2026-09-06 00:07:09 | 46.64318 | 7.62169 | 103° | 57km/h | 9637m | -5.6m/s | -34.3°C | 15.2% | -1.0hPa | 2.5V | 00:00:00 | 00:00:00 | 00:00:00 | |
| IW2NTF | 2026-09-06 00:07:05 | 46.64340 | 7.62041 | 104° | 60km/h | 9676m | -6.4m/s | -34.7°C | 17.9% | 0hPa | 2.5V | 08:14:35 | 01:33:17 | 00:00:00 | |
| DO3MHA-11 | 2026-09-06 00:07:05 | 46.64332 | 7.62084 | 106° | 58km/h | 9665m | -5.2m/s | -34.5°C | 18.0% | 0hPa | 2.5V | 00:00:00 | 01:33:19 | 00:00:00 | |
| DB0UT-7 | 2026-09-06 00:07:01 | 46.64348 | 7.61998 | 106° | 55km/h | 9691m | -10.6m/s | -34.8°C | 17.6% | 0hPa | 2.5V | 00:00:00 | 00:00:00 | 00:00:00 | |
| IW2NTF | 2026-09-06 00:06:55 | 46.64379 | 7.61837 | 102° | 57km/h | 9741m | -8.6m/s | -35.3°C | 18.5% | 0hPa | 2.5V | 08:14:45 | 01:33:07 | 00:00:00 | |
| DO3MHA-12 | 2026-09-06 00:06:55 | 46.64372 | 7.61877 | 104° | 58km/h | 9733m | -4.7m/s | -35.1°C | 18.7% | 0hPa | 2.6V | 00:00:00 | 01:33:09 | 00:00:00 | |
| IW2NTF | 2026-09-06 00:06:45 | 46.64414 | 7.61629 | 104° | 60km/h | 9822m | -5.9m/s | -35.9°C | 18.6% | 0hPa | 2.5V | 08:14:55 | 01:32:57 | 00:00:00 | |
| DO3MHA-11 | 2026-09-06 00:06:45 | 46.64406 | 7.61671 | 105° | 57km/h | 9806m | -8.7m/s | -35.8°C | 18.5% | 0hPa | 2.6V | 00:00:00 | 01:32:59 | 00:00:00 | |
| DO3MHA-12 | 2026-09-06 00:06:42 | 46.64418 | 7.61608 | 103° | 55km/h | 9828m | -7.1m/s | -35.9°C | 18.4% | 0hPa | 2.7V | 00:00:00 | 01:32:56 | 00:00:00 | |
| IW2NTF | 2026-09-06 00:06:38 | 46.64500 | 7.61205 | 106° | 53km/h | 9969m | -6.3m/s | -36.9°C | 15.7% | 0hPa | 2.7V | 08:15:17 | 01:32:35 | 00:00:00 | |
| DO3MHA-11 | 2026-09-06 00:06:35 | 46.64440 | 7.61469 | 109° | 53km/h | 9874m | -8.0m/s | -36.2°C | 17.5% | 0hPa | 2.7V | 00:00:00 | 01:32:49 | 00:00:00 | |
| DO3MHA-12 | 2026-09-06 00:06:32 | 46.64453 | 7.61415 | 111° | 55km/h | 9895m | -5.4m/s | -36.4°C | 16.9% | 0hPa | 2.7V | 00:00:00 | 01:32:46 | 00:00:00 | |
| IW2NTF | 2026-09-06 00:06:31 | 46.64526 | 7.61093 | 110° | 55km/h | 10011m | -3.3m/s | -37.3°C | 16.1% | 0hPa | 2.7V | 08:15:23 | 01:32:29 | 00:00:00 | |
| DO3MHA-11 | 2026-09-06 00:06:25 | 46.64484 | 7.61281 | 107° | 53km/h | 9943m | -9.8m/s | -36.7°C | 15.8% | 0hPa | 2.5V | 00:00:00 | 01:32:39 | 00:00:00 | |
| DO3MHA-12 | 2026-09-06 00:06:22 | 46.64496 | 7.61224 | 107° | 55km/h | 9964m | -3.7m/s | -36.8°C | 15.9% | 0hPa | 2.5V | 08:15:00 | 01:32:36 | 00:00:00 | |
| DO3MHA-11 | 2026-09-06 00:06:15 | 46.64525 | 7.61093 | 111° | 55km/h | 10011m | -3.2m/s | -37.2°C | 16.1% | 0hPa | 2.7V | 00:00:00 | 01:32:29 | 00:00:00 | |
| DO3MHA-12 | 2026-09-06 00:06:12 | 46.64539 | 7.61037 | 110° | 55km/h | 10027m | -5.8m/s | -37.3°C | 15.7% | 0hPa | 2.6V | 00:00:00 | 01:32:26 | 00:00:00 | |
| DB0ND-19 | 2026-09-06 00:06:09 | 46.64559 | 7.60945 | 106° | 51km/h | 10057m | -6.0m/s | -37.6°C | 13.1% | -1.0hPa | 2.6V | 00:00:00 | 00:00:00 | 00:00:00 | |
| IW2NTF | 2026-09-06 00:06:08 | 46.64567 | 7.60908 | 107° | 53km/h | 10068m | -6.7m/s | -37.7°C | 15.8% | 0hPa | 2.6V | 08:15:33 | 01:32:19 | 00:00:00 | |
| DO3MHA-11 | 2026-09-06 00:06:05 | 46.64567 | 7.60908 | 108° | 55km/h | 10068m | -6.6m/s | -37.7°C | 15.8% | 0hPa | 2.7V | 00:00:00 | 01:32:19 | 00:00:00 | |
| IW2NTF | 2026-09-06 00:06:00 | 46.64615 | 7.60721 | 108° | 53km/h | 10133m | -6.7m/s | -38.2°C | 15.3% | 0hPa | 2.7V | 08:15:43 | 01:32:09 | 00:00:00 | |
| DO3MHA-12 | 2026-09-06 00:06:00 | 46.64590 | 7.60816 | 112° | 55km/h | 10099m | -9.4m/s | -37.9°C | 15.0% | 0hPa | 2.5V | 00:00:00 | 01:32:14 | 00:00:00 | |
| DO3MHA-11 | 2026-09-06 00:05:55 | 46.64615 | 7.60721 | 109° | 53km/h | 10133m | -6.6m/s | -38.2°C | 15.3% | 0hPa | 2.5V | 00:00:00 | 01:32:09 | 00:00:00 | |
| IW2NTF | 2026-09-06 00:05:48 | 46.64671 | 7.60518 | 112° | 58km/h | 10204m | -5.8m/s | -38.7°C | 16.3% | 0hPa | 2.5V | 08:15:54 | 01:31:58 | 00:00:00 | |
| DO3MHA-12 | 2026-09-06 00:05:45 | 46.64665 | 7.60537 | 113° | 58km/h | 10199m | -6.3m/s | -38.6°C | 16.1% | 0hPa | 2.6V | 00:00:00 | 01:31:59 | 00:00:00 | |
| IW2NTF | 2026-09-06 00:05:39 | 46.64719 | 7.60315 | 107° | 57km/h | 10295m | -12.3m/s | -39.5°C | 16.9% | 0hPa | 2.5V | 08:16:04 | 01:31:48 | 00:00:00 | |
| DO3MHA-11 | 2026-09-06 00:05:35 | 46.64714 | 7.60336 | 109° | 58km/h | 10285m | -8.6m/s | -39.4°C | 16.9% | 0hPa | 2.5V | 00:00:00 | 01:31:49 | 00:00:00 | |
| DO3MHA-12 | 2026-09-06 00:05:33 | 46.64723 | 7.60295 | 108° | 58km/h | 10307m | -10.1m/s | -39.6°C | 17.2% | 0hPa | 2.5V | 00:00:00 | 01:31:47 | 00:00:00 | |
| IW2NTF | 2026-09-06 00:05:26 | 46.64772 | 7.60115 | 113° | 57km/h | 10369m | -4m/s | -40.3°C | 18.8% | 0hPa | 2.5V | 08:16:14 | 01:31:38 | 00:00:00 | |
| DO3MHA-11 | 2026-09-06 00:05:26 | 46.64766 | 7.60134 | 113° | 57km/h | 10364m | -6.8m/s | -40.2°C | 18.6% | 0hPa | 2.5V | 00:00:00 | 01:31:39 | 00:00:00 | |
| DO3MHA-12 | 2026-09-06 00:05:24 | 46.64777 | 7.60095 | 115° | 55km/h | 10375m | -6.1m/s | -40.3°C | 18.6% | 0hPa | 2.5V | 00:00:00 | 01:31:37 | 00:00:00 | |
| IW2NTF | 2026-09-06 00:05:20 | 46.64822 | 7.59925 | 106° | 57km/h | 10445m | -4.7m/s | -41°C | 19.2% | 0hPa | 2.5V | 08:16:24 | 01:31:28 | 00:00:00 | |
| DO3MHA-11 | 2026-09-06 00:05:15 | 46.64818 | 7.59945 | 106° | 58km/h | 10439m | -8.0m/s | -40.9°C | 19.2% | 0hPa | 2.6V | 00:00:00 | 01:31:29 | 00:00:00 | |
| IW2NTF | 2026-09-06 00:05:08 | 46.64870 | 7.59723 | 112° | 57km/h | 10521m | -7m/s | -41.6°C | 18.6% | 0hPa | 2.7V | 08:16:34 | 01:31:18 | 00:00:00 | |
| DO3MHA-11 | 2026-09-06 00:05:05 | 46.64864 | 7.59742 | 113° | 55km/h | 10514m | -7.9m/s | -41.4°C | 18.4% | 0hPa | 2.5V | 00:00:00 | 01:31:19 | 00:00:00 | |
| IW2NTF | 2026-09-06 00:05:00 | 46.64916 | 7.59531 | 107° | 57km/h | 10598m | -10.4m/s | -42.2°C | 18.6% | 0hPa | 2.5V | 08:16:44 | 01:31:08 | 00:00:00 | |
| DO3MHA-11 | 2026-09-06 00:04:55 | 46.64912 | 7.59551 | 106° | 60km/h | 10588m | -10.5m/s | -42.1°C | 18.6% | 0hPa | 2.5V | 00:00:00 | 01:31:09 | 00:00:00 | |
| DO3MHA-12 | 2026-09-06 00:04:53 | 46.64920 | 7.59512 | 108° | 62km/h | 10608m | -9.2m/s | -42.3°C | 18.8% | 0hPa | 2.5V | 00:00:00 | 01:31:07 | 00:00:00 | |
| IW2NTF | 2026-09-06 00:04:48 | 46.64973 | 7.59273 | 108° | 57km/h | 10685m | -7.6m/s | -43°C | 20.2% | 0hPa | 2.5V | 08:16:56 | 01:30:56 | 00:00:00 | |
| DB0UT-7 | 2026-09-06 00:04:46 | 46.64959 | 7.59337 | 110° | 57km/h | 10667m | -8.3m/s | -42.8°C | 20.0% | 0hPa | 2.5V | 00:00:00 | 00:00:00 | 00:00:00 | |
| DO3MHA-11 | 2026-09-06 00:04:45 | 46.64959 | 7.59337 | 110° | 55km/h | 10667m | -8.3m/s | -42.8°C | 20.0% | 0hPa | 2.5V | 00:00:00 | 01:30:59 | 00:00:00 | |
| HASLITAL | 2026-09-06 00:04:44 | 46.64959 | 7.59337 | 111° | 62km/h | 10667m | -8.3m/s | -42.9°C | 16.5% | 0hPa | 2.5V | 00:00:00 | 00:00:00 | 00:00:00 | |
| DO3MHA-12 | 2026-09-06 00:04:43 | 46.64969 | 7.59293 | 109° | 53km/h | 10678m | -7.0m/s | -42.9°C | 20.2% | 0hPa | 2.5V | 08:16:00 | 01:30:57 | 00:00:00 | |
| DO3MHA-11 | 2026-09-06 00:04:35 | 46.65003 | 7.59145 | 109° | 57km/h | 10739m | -5.4m/s | -43.5°C | 20.8% | 0hPa | 2.5V | 00:00:00 | 01:30:49 | 00:00:00 | |
| DB0ND-19 | 2026-09-06 00:04:34 | 46.65007 | 7.59126 | 107° | 55km/h | 10747m | -9.7m/s | -43.6°C | 16.9% | -1.0hPa | 2.5V | 00:00:00 | 00:00:00 | 00:00:00 | |
| IW2NTF | 2026-09-06 00:04:33 | 46.65015 | 7.59086 | 104° | 57km/h | 10762m | -6.8m/s | -43.8°C | 20.8% | 0hPa | 2.5V | 08:17:06 | 01:30:46 | 00:00:00 | |
| DO3MHA-12 | 2026-09-06 00:04:33 | 46.65011 | 7.59106 | 106° | 57km/h | 10755m | -7.7m/s | -43.7°C | 20.8% | 0hPa | 2.5V | 00:00:00 | 01:30:47 | 00:00:00 | |
| IW2NTF | 2026-09-06 00:04:28 | 46.65051 | 7.58883 | 105° | 57km/h | 10842m | -5m/s | -44.5°C | 20% | 0hPa | 2.5V | 08:17:16 | 01:30:36 | 00:00:00 | |
| DO3MHA-11 | 2026-09-06 00:04:25 | 46.65040 | 7.58943 | 106° | 57km/h | 10819m | -9.4m/s | -44.2°C | 19.4% | 0hPa | 2.7V | 00:00:00 | 01:30:39 | 00:00:00 | |
| DO3MHA-12 | 2026-09-06 00:04:23 | 46.65047 | 7.58903 | 105° | 57km/h | 10835m | -8.5m/s | -44.3°C | 19.7% | 0hPa | 2.7V | 00:00:00 | 01:30:37 | 00:00:00 | |
| DO3MHA-11 | 2026-09-06 00:04:16 | 46.65075 | 7.58744 | 104° | 57km/h | 10879m | -6.6m/s | -44.6°C | 19.9% | 0hPa | 2.7V | 08:17:00 | 01:30:29 | 00:00:00 | |
| IW2NTF | 2026-09-06 00:04:15 | 46.65085 | 7.58684 | 103° | 58km/h | 10897m | -6.3m/s | -44.8°C | 20.1% | 0hPa | 2.5V | 08:17:26 | 01:30:26 | 00:00:00 | |
| DO3MHA-12 | 2026-09-06 00:04:13 | 46.65082 | 7.58704 | 103° | 58km/h | 10890m | -7.5m/s | -44.7°C | 20.1% | 0hPa | 2.5V | 00:00:00 | 01:30:27 | 00:00:00 | |
| DO3MHA-11 | 2026-09-06 00:04:05 | 46.65111 | 7.58540 | 106° | 58km/h | 10947m | -7.1m/s | -45.2°C | 21.0% | 0hPa | 2.5V | 00:00:00 | 01:30:19 | 00:00:00 | |
| IW2NTF | 2026-09-06 00:04:04 | 46.65122 | 7.58479 | 101° | 57km/h | 10967m | -7m/s | -45.5°C | 21.6% | 0hPa | 2.5V | 08:17:36 | 01:30:16 | 00:00:00 | |
| DB0ND-19 | 2026-09-06 00:04:03 | 46.65150 | 7.58286 | 103° | 60km/h | 11034m | -7.3m/s | -46.0°C | 18.5% | -1.0hPa | 2.5V | 00:00:00 | 00:00:00 | 00:00:00 | |
| DO3MHA-11 | 2026-09-06 00:03:56 | 46.65143 | 7.58330 | 102° | 60km/h | 11021m | -7.9m/s | -45.9°C | 22.5% | 0hPa | 2.5V | 00:00:00 | 01:30:09 | 00:00:00 | |
| IW2NTF | 2026-09-06 00:03:55 | 46.65158 | 7.58242 | 104° | 62km/h | 11047m | -7.5m/s | -46.1°C | 22.8% | 0hPa | 2.5V | 08:17:47 | 01:30:05 | 00:00:00 | |
| DB0UT-7 | 2026-09-06 00:03:45 | 46.65179 | 7.58116 | 102° | 57km/h | 11094m | -6.9m/s | -46.5°C | 24.5% | 0hPa | 2.5V | 00:00:00 | 00:00:00 | 00:00:00 | |
| DO3MHA-11 | 2026-09-06 00:03:44 | 46.65182 | 7.58096 | 102° | 58km/h | 11102m | -8.3m/s | -46.5°C | 24.5% | 0hPa | 2.5V | 00:00:00 | 01:29:58 | 00:00:00 | |
| IW2NTF | 2026-09-06 00:03:41 | 46.65190 | 7.58035 | 100° | 57km/h | 11125m | -7.8m/s | -46.7°C | 25% | 0hPa | 2.7V | 08:17:57 | 01:29:55 | 00:00:00 | |
| DO3MHA-11 | 2026-09-06 00:03:34 | 46.65213 | 7.57888 | 106° | 57km/h | 11174m | -8.3m/s | -47.1°C | 25.2% | 0hPa | 2.7V | 00:00:00 | 01:29:48 | 00:00:00 | |
| IW2NTF | 2026-09-06 00:03:31 | 46.65226 | 7.57826 | 106° | 58km/h | 11196m | -6m/s | -47.3°C | 25.5% | 0hPa | 2.7V | 08:18:07 | 01:29:45 | 00:00:00 | |
| DO3MHA-11 | 2026-09-06 00:03:26 | 46.65255 | 7.57689 | 107° | 57km/h | 11244m | -5.5m/s | -47.7°C | 26.3% | 0hPa | 2.5V | 00:00:00 | 01:29:38 | 00:00:00 | |
| IW2NTF | 2026-09-06 00:03:22 | 46.65266 | 7.57630 | 101° | 57km/h | 11266m | -8.1m/s | -47.9°C | 26% | 0hPa | 2.5V | 08:18:17 | 01:29:35 | 00:00:00 | |
| DO3MHA-11 | 2026-09-06 00:03:18 | 46.65293 | 7.57485 | 108° | 60km/h | 11318m | -9.2m/s | -48.3°C | 25.9% | 0hPa | 2.7V | 00:00:00 | 01:29:28 | 00:00:00 | |
| IW2NTF | 2026-09-06 00:03:12 | 46.65307 | 7.57422 | 108° | 60km/h | 11341m | -6m/s | -48.6°C | 26.6% | 0hPa | 2.5V | 08:18:27 | 01:29:25 | 00:00:00 | |
| DB0ND-19 | 2026-09-06 00:03:09 | 46.65347 | 7.57208 | 104° | 62km/h | 11408m | -8.3m/s | -49.2°C | 21.7% | -1.0hPa | 2.5V | 00:00:00 | 00:00:00 | 00:00:00 | |
| IW2NTF | 2026-09-06 00:03:02 | 46.65347 | 7.57208 | 104° | 64km/h | 11407m | -8.3m/s | -49.2°C | 26.9% | 0hPa | 2.5V | 08:18:37 | 01:29:15 | 00:00:00 | |
| DB0UT-7 | 2026-09-06 00:02:54 | 46.65412 | 7.56863 | 108° | 62km/h | 11527m | -8.2m/s | -50.2°C | 29.9% | 0hPa | 2.5V | 08:18:00 | 00:00:00 | 00:00:00 | |
| DO3MHA-11 | 2026-09-06 00:02:53 | 46.65417 | 7.56843 | 109° | 62km/h | 11535m | -9.0m/s | -50.3°C | 30.1% | 0hPa | 2.5V | 08:18:00 | 01:28:58 | 00:00:00 | |
| IW2NTF | 2026-09-06 00:02:52 | 46.65389 | 7.56989 | 105° | 60km/h | 11481m | -8.4m/s | -49.9°C | 29% | 0hPa | 2.7V | 08:30:00 | 01:29:05 | 00:00:00 | |
| DO3MHA-11 | 2026-09-06 00:02:39 | 46.65455 | 7.56618 | 101° | 62km/h | 11607m | -6.0m/s | -51.0°C | 33.1% | 0hPa | 2.7V | 00:00:00 | 01:28:48 | 00:00:00 | |
| DO3MHA-12 | 2026-09-06 00:02:38 | 46.65458 | 7.56595 | 101° | 62km/h | 11614m | -7.7m/s | -51.1°C | 33.8% | 0hPa | 2.7V | 00:00:00 | 01:28:47 | 00:00:00 | |
| DB0ND-19 | 2026-09-06 00:02:34 | 46.65466 | 7.56528 | 100° | 60km/h | 11631m | -6.4m/s | -51.2°C | 28.7% | -1.0hPa | 2.7V | 00:00:00 | 00:00:00 | 00:00:00 | |
| DO3MHA-11 | 2026-09-06 00:02:25 | 46.65482 | 7.56395 | 101° | 62km/h | 11673m | -8.7m/s | -51.4°C | 35.9% | 0hPa | 2.7V | 00:00:00 | 01:28:38 | 00:00:00 | |
| DO3MHA-12 | 2026-09-06 00:02:24 | 46.65485 | 7.56373 | 101° | 62km/h | 11681m | -7.3m/s | -51.5°C | 36.3% | 0hPa | 2.7V | 00:00:00 | 01:28:37 | 00:00:00 | |
| DO3MHA-11 | 2026-09-06 00:02:16 | 46.65511 | 7.56171 | 100° | 60km/h | 11763m | -9.8m/s | -52.2°C | 38.4% | 0hPa | 2.5V | 00:00:00 | 01:28:28 | 00:00:00 | |
| DO3MHA-12 | 2026-09-06 00:02:14 | 46.65513 | 7.56149 | 98° | 60km/h | 11772m | -9.0m/s | -52.3°C | 39.1% | 0hPa | 2.5V | 00:00:00 | 01:28:27 | 00:00:00 | |
| DO3MHA-11 | 2026-09-06 00:02:04 | 46.65529 | 7.55952 | 97° | 60km/h | 11838m | -8.1m/s | -52.9°C | 42.9% | 0hPa | 2.5V | 00:00:00 | 01:28:18 | 00:00:00 | |
| DO3MHA-12 | 2026-09-06 00:02:03 | 46.65530 | 7.55930 | 96° | 60km/h | 11846m | -8.6m/s | -53.0°C | 43.1% | 0hPa | 2.5V | 00:00:00 | 01:28:17 | 00:00:00 | |
| DB0ND-19 | 2026-09-06 00:02:00 | 46.65537 | 7.55841 | 94° | 60km/h | 11874m | -5.8m/s | -53.3°C | 37.4% | -1.0hPa | 2.5V | 00:00:00 | 00:00:00 | 00:00:00 | |
| DO3MHA-11 | 2026-09-06 00:01:57 | 46.65544 | 7.55734 | 98° | 58km/h | 11909m | -6.3m/s | -53.5°C | 47.5% | 0hPa | 2.5V | 00:00:00 | 01:28:08 | 00:00:00 | |
| DO3MHA-12 | 2026-09-06 00:01:56 | 46.65546 | 7.55712 | 98° | 58km/h | 11916m | -8.2m/s | -53.6°C | 47.7% | 0hPa | 2.5V | 00:00:00 | 01:28:07 | 08:30:00 | |
| DB0UT-7 | 2026-09-06 00:01:49 | 46.65554 | 7.55544 | 90° | 62km/h | 11979m | -6.7m/s | -54.2°C | 54.6% | 0hPa | 2.7V | 00:00:00 | 00:00:00 | 00:00:00 | |
| DO3MHA-11 | 2026-09-06 00:01:48 | 46.65555 | 7.55522 | 92° | 68km/h | 11985m | -6.5m/s | -54.2°C | 55.6% | 0hPa | 2.7V | 00:00:00 | 01:27:58 | 00:00:00 | |
| DO3MHA-11 | 2026-09-06 00:01:35 | 46.65565 | 7.55277 | 92° | 60km/h | 12062m | -9.8m/s | -54.9°C | 56.4% | 0hPa | 2.7V | 00:00:00 | 01:27:48 | 00:00:00 | |
| DB0ND-19 | 2026-09-06 00:01:31 | 46.65569 | 7.55147 | 91° | 58km/h | 12107m | -7.1m/s | -55.4°C | 49.8% | -1.0hPa | 2.7V | 00:00:00 | 00:00:00 | 00:00:00 | |
| DO3MHA-11 | 2026-09-06 00:01:27 | 46.65572 | 7.55056 | 95° | 60km/h | 12131m | -7.7m/s | -55.5°C | 59.2% | 0hPa | 2.7V | 00:00:00 | 01:27:38 | 00:00:00 | |
| DB0UT-7 | 2026-09-06 00:01:18 | 46.65585 | 7.54853 | 93° | 55km/h | 12195m | -6.0m/s | -55.9°C | 53.6% | 0hPa | 2.7V | 00:00:00 | 01:27:29 | 00:00:00 | |
| DO3MHA-11 | 2026-09-06 00:01:17 | 46.65585 | 7.54833 | 93° | 53km/h | 12200m | -4.8m/s | -55.9°C | 53.2% | 0hPa | 2.5V | 08:20:00 | 01:27:28 | 00:00:00 | |
| IW2NTF | 2026-09-06 00:01:02 | 46.65602 | 7.54478 | 89° | 53km/h | 12332m | -7.7m/s | -56.8°C | 46.4% | 0hPa | 2.5V | 08:30:00 | 01:27:10 | 00:00:00 | |
| DB0ND-19 | 2026-09-06 00:00:58 | 46.65603 | 7.54478 | 89° | 53km/h | 12332m | -7.7m/s | -56.8°C | 37.3% | -1.0hPa | 2.7V | 00:00:00 | 00:00:00 | 00:00:00 | |
| DO3MHA-11 | 2026-09-06 00:00:55 | 46.65602 | 7.54458 | 89° | 58km/h | 12340m | -7.8m/s | -56.8°C | 46.3% | 0hPa | 2.7V | 00:00:00 | 01:27:09 | 00:00:00 | |
| IW2NTF | 2026-09-06 00:00:52 | 46.65607 | 7.54267 | 94° | 57km/h | 12399m | -5.8m/s | -57.4°C | 49.8% | 0hPa | 2.7V | 08:30:00 | 01:27:00 | 00:00:00 | |
| DB0UT-7 | 2026-09-06 00:00:47 | 46.65608 | 7.54246 | 93° | 57km/h | 12405m | -6.0m/s | -57.4°C | 50.2% | 0hPa | 2.5V | 00:00:00 | 00:00:00 | 00:00:00 | |
| DO3MHA-11 | 2026-09-06 00:00:46 | 46.65608 | 7.54246 | 93° | 57km/h | 12405m | -6.0m/s | -57.4°C | 50.2% | 0hPa | 2.5V | 00:00:00 | 01:26:59 | 00:00:00 | |
| IW2NTF | 2026-09-06 00:00:41 | 46.65615 | 7.54014 | 93° | 62km/h | 12469m | -4.7m/s | -58°C | 0% | 0hPa | 2.5V | 08:30:00 | 01:26:48 | 00:00:00 | |
| DO3MHA-11 | 2026-09-06 00:00:38 | 46.65614 | 7.54036 | 95° | 57km/h | 12464m | -6.1m/s | -57.9°C | 51.4% | 0hPa | 2.7V | 00:00:00 | 01:26:49 | 00:00:00 | |
| DB0UT-7 | 2026-09-06 00:00:19 | 46.65629 | 7.53620 | 93° | 58km/h | 12597m | -5.2m/s | -59.1°C | 56.7% | 0hPa | 2.5V | 00:00:00 | 01:26:29 | 00:00:00 | |
| DO3MHA-11 | 2026-09-06 00:00:07 | 46.65638 | 7.53425 | 93° | 57km/h | 12676m | -8.0m/s | -59.8°C | 59.1% | 0hPa | 2.5V | 00:00:00 | 01:26:20 | 00:00:00 | |
| HASLITAL | 2026-09-05 23:59:56 | 46.65656 | 7.53218 | 96° | 62km/h | 12748m | -9.6m/s | -60.5°C | 49.1% | 0hPa | 2.5V | 00:00:00 | 00:00:00 | 00:00:00 | |
| DB0ND-19 | 2026-09-05 23:59:55 | 46.65659 | 7.53173 | 93° | 62km/h | 12764m | -8.7m/s | -60.7°C | 49.6% | -1.0hPa | 2.5V | 00:00:00 | 00:00:00 | 00:00:00 | |
| IW2NTF | 2026-09-05 23:59:54 | 46.65662 | 7.53044 | 92° | 55km/h | 12808m | -4.9m/s | -61°C | 0% | 0hPa | 2.5V | 08:30:00 | 01:26:02 | 00:00:00 | |
| DO3MHA-11 | 2026-09-05 23:59:46 | 46.65663 | 7.53004 | 92° | 58km/h | 12820m | -7.4m/s | -61.0°C | 61.4% | 0hPa | 2.6V | 00:00:00 | 01:26:00 | 00:00:00 | |
| DB0UT-7 | 2026-09-05 23:59:45 | 46.65663 | 7.52983 | 92° | 60km/h | 12827m | -7.2m/s | -61.1°C | 61.3% | 0hPa | 2.6V | 00:00:00 | 00:00:00 | 00:00:00 | |
| DO3MHA-11 | 2026-09-05 23:59:35 | 46.65659 | 7.52763 | 87° | 62km/h | 12896m | -7.8m/s | -61.6°C | 64.5% | 0hPa | 2.7V | 00:00:00 | 01:25:49 | 00:00:00 | |
| IW2NTF | 2026-09-05 23:59:34 | 46.65656 | 7.52697 | 85° | 60km/h | 12918m | -5.3m/s | -61.9°C | 0% | 0hPa | 2.7V | 08:30:00 | 01:25:46 | 00:00:00 | |
| HARRO8 | 2026-09-05 23:59:32 | 46.65653 | 7.52651 | 86° | 64km/h | 12930m | -8.4m/s | -62.0°C | 51.3% | -1.0hPa | 2.5V | 00:00:00 | 00:00:00 | 00:00:00 | |
| DO3MHA-11 | 2026-09-05 23:59:25 | 46.65650 | 7.52532 | 90° | 60km/h | 12970m | -8.5m/s | -62.2°C | 65.4% | 0hPa | 2.5V | 08:22:00 | 01:25:39 | 00:00:00 | |
| DB0ND-19 | 2026-09-05 23:59:24 | 46.65651 | 7.52485 | 92° | 62km/h | 12985m | -7.3m/s | -62.4°C | 53.5% | -1.0hPa | 2.7V | 00:00:00 | 00:00:00 | 00:00:00 | |
| DO3MHA-11 | 2026-09-05 23:59:15 | 46.65647 | 7.52310 | 82° | 62km/h | 13041m | -8.0m/s | -62.8°C | 66.1% | 0hPa | 2.7V | 00:00:00 | 01:25:29 | 00:00:00 | |
| HASLITAL | 2026-09-05 23:59:14 | 46.65647 | 7.52310 | 82° | 58km/h | 13041m | -8.1m/s | -62.9°C | 53.1% | 0hPa | 2.7V | 00:00:00 | 00:00:00 | 00:00:00 | |
| DO3MHA-11 | 2026-09-05 23:59:05 | 46.65631 | 7.52081 | 92° | 60km/h | 13144m | -8.1m/s | -63.7°C | 65.3% | 0hPa | 2.7V | 00:00:00 | 01:25:19 | 00:00:00 | |
| HARRO8 | 2026-09-05 23:59:00 | 46.65636 | 7.51927 | 91° | 58km/h | 13209m | -6.9m/s | -64.4°C | 52.3% | -1.0hPa | 2.7V | 00:00:00 | 00:00:00 | 00:00:00 | |
| DB0ND-19 | 2026-09-05 23:58:53 | 46.65635 | 7.51794 | 89° | 62km/h | 13245m | -5.6m/s | -64.8°C | 53.2% | -1.0hPa | 2.7V | 00:00:00 | 00:00:00 | 00:00:00 | |
| HASLITAL | 2026-09-05 23:58:52 | 46.65635 | 7.51817 | 90° | 62km/h | 13240m | -5.5m/s | -64.7°C | 53.5% | 0hPa | 2.7V | 00:00:00 | 00:00:00 | 00:00:00 | |
| DH7VM-15 | 2026-09-05 23:58:46 | 46.65638 | 7.51679 | 96° | 62km/h | 13273m | -5.9m/s | 0°C | 0% | 0hPa | 2.7V | 00:00:00 | 00:00:00 | 00:00:00 | |
| DO3MHA-11 | 2026-09-05 23:58:45 | 46.65641 | 7.51633 | 96° | 60km/h | 13285m | -5.8m/s | -65.0°C | 66.3% | 0hPa | 2.7V | 00:00:00 | 01:24:59 | 00:00:00 | |
| DO3MHA-12 | 2026-09-05 23:58:43 | 46.65644 | 7.51588 | 96° | 60km/h | 13297m | -6.6m/s | -65.1°C | 65.5% | 0hPa | 2.7V | 00:00:00 | 01:24:57 | 00:00:00 | |
| DO3MHA-11 | 2026-09-05 23:58:35 | 46.65639 | 7.51410 | 86° | 58km/h | 13357m | -8.2m/s | -65.6°C | 63.1% | 0hPa | 2.7V | 00:00:00 | 01:24:49 | 00:00:00 | |
| DO3MHA-12 | 2026-09-05 23:58:31 | 46.65635 | 7.51324 | 89° | 60km/h | 13390m | -10.8m/s | -65.8°C | 60.6% | 0hPa | 2.7V | 00:00:00 | 01:24:45 | 00:00:00 | |
| HASLITAL | 2026-09-05 23:58:29 | 46.65634 | 7.51303 | 90° | 57km/h | 13402m | -12.6m/s | -65.9°C | 47.2% | 0hPa | 2.7V | 08:23:00 | 00:00:00 | 00:00:00 | |
| HARRO8 | 2026-09-05 23:58:28 | 46.65634 | 7.51262 | 91° | 53km/h | 13426m | -9.4m/s | -66.1°C | 47.1% | -1.0hPa | 2.7V | 00:00:00 | 00:00:00 | 00:00:00 | |
| DO3MHA-11 | 2026-09-05 23:58:25 | 46.65634 | 7.51197 | 88° | 60km/h | 13462m | -13.8m/s | -66.3°C | 60.3% | 0hPa | 2.7V | 00:00:00 | 01:24:39 | 00:00:00 | |
| DB0ND-19 | 2026-09-05 23:58:22 | 46.65626 | 7.51107 | 82° | 60km/h | 13511m | -13.1m/s | -66.7°C | 45.4% | -1.0hPa | 2.7V | 00:00:00 | 00:00:00 | 00:00:00 | |
| DO3MHA-12 | 2026-09-05 23:58:21 | 46.65626 | 7.51107 | 83° | 69km/h | 13512m | -13.1m/s | -66.7°C | 59.6% | 0hPa | 2.7V | 00:00:00 | 01:24:35 | 00:00:00 | |
| DO3MHA-11 | 2026-09-05 23:58:15 | 46.65620 | 7.50977 | 93° | 66km/h | 13589m | -12.3m/s | -67.3°C | 57.5% | 0hPa | 2.7V | 00:00:00 | 01:24:29 | 00:00:00 | |
| HASLITAL | 2026-09-05 23:58:08 | 46.65628 | 7.50835 | 95° | 69km/h | 13647m | -8.2m/s | -67.7°C | 42.0% | 0hPa | 2.7V | 08:23:00 | 00:00:00 | 00:00:00 | |
| DK5PH-5 | 2026-09-05 23:58:07 | 46.65631 | 7.50783 | 96° | 66km/h | 13661m | -6.5m/s | 0°C | 0% | 0hPa | 2.7V | 00:00:00 | 01:24:21 | 00:00:00 | |
| DO3MHA-11 | 2026-09-05 23:58:05 | 46.65634 | 7.50733 | 96° | 73km/h | 13675m | -6.1m/s | -67.8°C | 55.4% | 0hPa | 2.7V | 00:00:00 | 01:24:19 | 00:00:00 | |
| HARRO8 | 2026-09-05 23:57:58 | 46.65648 | 7.50523 | 96° | 75km/h | 13713m | -4.6m/s | -67.5°C | 41.1% | -1.0hPa | 2.7V | 00:00:00 | 00:00:00 | 00:00:00 | |
| DB0ND-19 | 2026-09-05 23:57:51 | 46.65669 | 7.50329 | 100° | 75km/h | 13750m | -7.0m/s | -67.4°C | 40.6% | -1.0hPa | 2.7V | 00:00:00 | 00:00:00 | 00:00:00 | |
| HASLITAL | 2026-09-05 23:57:48 | 46.65672 | 7.50301 | 102° | 77km/h | 13757m | -6.4m/s | -67.4°C | 40.5% | 0hPa | 2.7V | 08:24:00 | 00:00:00 | 00:00:00 | |
| DO3MHA-11 | 2026-09-05 23:57:45 | 46.65689 | 7.50192 | 106° | 78km/h | 13788m | -9.4m/s | -67.2°C | 51.2% | 0hPa | 2.7V | 00:00:00 | 01:23:59 | 00:00:00 | |
| DO3MHA-11 | 2026-09-05 23:57:35 | 46.65749 | 7.49918 | 111° | 80km/h | 13890m | -8.0m/s | -67.5°C | 49.9% | 0hPa | 2.7V | 00:00:00 | 01:23:49 | 00:00:00 | |
| HASLITAL | 2026-09-05 23:57:28 | 46.65792 | 7.49751 | 112° | 80km/h | 13938m | -8.1m/s | -67.8°C | 36.6% | 0hPa | 2.7V | 08:24:00 | 00:00:00 | 00:00:00 | |
| DO3MHA-11 | 2026-09-05 23:57:26 | 46.65822 | 7.49643 | 112° | 78km/h | 13969m | -7.6m/s | -68.0°C | 48.7% | 0hPa | 2.7V | 00:00:00 | 01:23:39 | 00:00:00 | |
| DB0ND-19 | 2026-09-05 23:57:19 | 46.65866 | 7.49481 | 111° | 78km/h | 14017m | -8.0m/s | -68.5°C | 34.4% | -1.0hPa | 2.6V | 00:00:00 | 00:00:00 | 00:00:00 | |
| DO3MHA-11 | 2026-09-05 23:57:15 | 46.65895 | 7.49375 | 112° | 75km/h | 14049m | -8.1m/s | -68.8°C | 46.6% | 0hPa | 2.6V | 00:00:00 | 01:23:29 | 00:00:00 | |
| HASLITAL | 2026-09-05 23:57:07 | 46.65947 | 7.49194 | 113° | 75km/h | 14108m | -9.1m/s | -69.3°C | 33.1% | 0hPa | 2.6V | 08:24:00 | 00:00:00 | 00:00:00 | |
| DO3MHA-11 | 2026-09-05 23:57:05 | 46.65969 | 7.49118 | 115° | 71km/h | 14136m | -9.4m/s | -69.5°C | 46.3% | 0hPa | 2.6V | 00:00:00 | 01:23:19 | 00:00:00 | |
| HARRO8 | 2026-09-05 23:56:55 | 46.66037 | 7.48880 | 113° | 64km/h | 14237m | -9.7m/s | -70.2°C | 30.4% | -1.0hPa | 2.6V | 00:00:00 | 00:00:00 | 00:00:00 | |
| DB0ND-19 | 2026-09-05 23:56:48 | 46.66095 | 7.48729 | 121° | 66km/h | 14304m | -8.7m/s | -69.1°C | 24.0% | -1.0hPa | 2.6V | 00:00:00 | 00:00:00 | 00:00:00 | |
| HASLITAL | 2026-09-05 23:56:47 | 46.66095 | 7.48729 | 123° | 66km/h | 14304m | -8.7m/s | -69.1°C | 24.5% | 0hPa | 2.6V | 08:25:00 | 00:00:00 | 00:00:00 | |
| DB0UT-7 | 2026-09-05 23:56:45 | 46.66122 | 7.48665 | 122° | 64km/h | 14329m | -8.0m/s | -68.6°C | 33.4% | 0hPa | 2.6V | 00:00:00 | 00:00:00 | 00:00:00 | |
| DO3MHA-11 | 2026-09-05 23:56:33 | 46.66234 | 7.48418 | 130° | 62km/h | 14427m | -8.7m/s | -68.4°C | 30.5% | 0hPa | 2.6V | 00:00:00 | 01:22:47 | 00:00:00 | |
| HARRO8 | 2026-09-05 23:56:24 | 46.66318 | 7.48255 | 121° | 60km/h | 14532m | -12.2m/s | -67.9°C | 15.6% | -1.0hPa | 2.6V | 00:00:00 | 00:00:00 | 00:00:00 | |
| DO3MHA-11 | 2026-09-05 23:56:23 | 46.66326 | 7.48236 | 120° | 62km/h | 14543m | -9.6m/s | -67.9°C | 25.0% | 0hPa | 2.6V | 00:00:00 | 01:22:37 | 00:00:00 | |
| DB0ND-19 | 2026-09-05 23:56:18 | 46.66368 | 7.48115 | 114° | 62km/h | 14597m | -8.8m/s | -67.8°C | 13.6% | -1.0hPa | 2.6V | 00:00:00 | 00:00:00 | 00:00:00 | |
| DB0UT-7 | 2026-09-05 23:56:15 | 46.66382 | 7.48072 | 114° | 68km/h | 14615m | -10.2m/s | !°C | 21.2% | 0hPa | 2.6V | 00:00:00 | 01:22:29 | 00:00:00 | |
| DO3MHA-11 | 2026-09-05 23:56:13 | 46.66395 | 7.48028 | 112° | 66km/h | 14633m | -7.6m/s | -66.6°C | 19.2% | 0hPa | 2.6V | 00:00:00 | 01:22:27 | 00:00:00 | |
| DO3MHA-11 | 2026-09-05 23:56:03 | 46.66443 | 7.47794 | 105° | 68km/h | 14693m | -5.3m/s | -65.8°C | 17.0% | 0hPa | 2.6V | 08:25:00 | 01:22:17 | 00:00:00 | |
| HARRO8 | 2026-09-05 23:55:53 | 46.66502 | 7.47561 | 117° | 62km/h | 14753m | -5.9m/s | -65.7°C | 8.0% | -1.0hPa | 2.6V | 00:00:00 | 00:00:00 | 00:00:00 | |
| DB0ND-19 | 2026-09-05 23:55:47 | 46.66553 | 7.47408 | 116° | 64km/h | 14809m | -6.4m/s | -65.2°C | 7.3% | -1.0hPa | 2.6V | 00:00:00 | 00:00:00 | 00:00:00 | |
| DB0UT-7 | 2026-09-05 23:55:45 | 46.66560 | 7.47387 | 117° | 60km/h | 14816m | -6.4m/s | -65.1°C | 13.6% | 0hPa | 2.6V | 00:00:00 | 00:00:00 | 00:00:00 | |
| HASLITAL | 2026-09-05 23:55:42 | 46.66575 | 7.47348 | 124° | 60km/h | 14829m | -6.4m/s | -64.8°C | 7.1% | 0hPa | 2.6V | 08:26:00 | 00:00:00 | 00:00:00 | |
| DO3MHA-11 | 2026-09-05 23:55:25 | 46.66700 | 7.47025 | 111° | 68km/h | 15009m | -9.0m/s | -63.5°C | 10.6% | 0hPa | 2.6V | 00:00:00 | 01:21:39 | 00:00:00 | |
| HARRO8 | 2026-09-05 23:55:22 | 46.66716 | 7.46960 | 107° | 64km/h | 15033m | -7.3m/s | -63.7°C | 5.0% | -1.0hPa | 2.6V | 00:00:00 | 00:00:00 | 00:00:00 | |
| DB0UT-7 | 2026-09-05 23:55:15 | 46.66769 | 7.46803 | 126° | 73km/h | 15109m | -11.6m/s | -63.8°C | 10.0% | 0hPa | 2.6V | 00:00:00 | 01:21:29 | 00:00:00 | |
| DO3MHA-11 | 2026-09-05 23:55:14 | 46.66779 | 7.46783 | 126° | 66km/h | 15119m | -7.9m/s | -63.9°C | 10.1% | 0hPa | 2.6V | 00:00:00 | 01:21:28 | 00:00:00 | |
| DO3MHA-11 | 2026-09-05 23:55:04 | 46.66856 | 7.46565 | 116° | 77km/h | 15219m | -7.6m/s | -63.5°C | 10.1% | 0hPa | 2.6V | 00:00:00 | 01:21:18 | 00:00:00 | |
| HARRO8 | 2026-09-05 23:54:51 | 46.66976 | 7.46256 | 119° | 78km/h | 15316m | -7.7m/s | -63.2°C | 4.2% | -1.0hPa | 2.6V | 00:00:00 | 00:00:00 | 00:00:00 | |
| DB0UT-7 | 2026-09-05 23:54:45 | 46.67039 | 7.46101 | 121° | 64km/h | 15358m | -8.3m/s | -62.9°C | 8.8% | 0hPa | 2.6V | 00:00:00 | 00:00:00 | 00:00:00 | |
| DO3MHA-11 | 2026-09-05 23:54:44 | 46.67049 | 7.46077 | 121° | 66km/h | 15367m | -10.1m/s | -62.9°C | 8.8% | 0hPa | 2.6V | 00:00:00 | 01:20:58 | 00:00:00 | |
| HASLITAL | 2026-09-05 23:54:40 | 46.67076 | 7.46011 | 122° | 66km/h | 15396m | -10.5m/s | -63.2°C | 4.3% | 0hPa | 2.6V | 08:27:00 | 00:00:00 | 00:00:00 | |
| DO3MHA-11 | 2026-09-05 23:54:34 | 46.67130 | 7.45867 | 121° | 62km/h | 15471m | -8.6m/s | -63.7°C | 9.4% | 0hPa | 2.6V | 00:00:00 | 01:20:48 | 00:00:00 | |
| DL1ZP-14 | 2026-09-05 23:54:33 | 46.67154 | 7.45811 | 126° | 60km/h | 15496m | -9.4m/s | -63.6°C | 3.9% | -1.0hPa | 2.6V | 00:00:00 | 00:00:00 | 00:00:00 | |
| IW2NTF | 2026-09-05 23:54:26 | 46.67213 | 7.45704 | 124° | 62km/h | 15546m | -8.4m/s | -63.2°C | 0% | 0hPa | 2.7V | 08:30:00 | 01:20:39 | 00:00:00 | |
| DB0NH | 2026-09-05 23:54:25 | 46.67213 | 7.45704 | 125° | 62km/h | 15547m | -8.3m/s | 0°C | 0% | 0hPa | 2.7V | 00:00:00 | 01:20:39 | 00:00:00 | |
| DO3MHA-11 | 2026-09-05 23:54:24 | 46.67221 | 7.45685 | 119° | 58km/h | 15555m | -9.8m/s | -63.2°C | 8.8% | 0hPa | 2.7V | 00:00:00 | 01:20:38 | 00:00:00 | |
| HARRO8 | 2026-09-05 23:54:20 | 46.67246 | 7.45602 | 111° | 58km/h | 15590m | -9.3m/s | -62.8°C | 3.5% | -1.0hPa | 2.7V | 00:00:00 | 00:00:00 | 00:00:00 | |
| DO3MHA-11 | 2026-09-05 23:54:14 | 46.67280 | 7.45486 | 116° | 57km/h | 15649m | -8.7m/s | -62.3°C | 8.1% | 0hPa | 2.7V | 08:27:00 | 01:20:28 | 00:00:00 | |
| DB0ND-19 | 2026-09-05 23:54:13 | 46.67286 | 7.45467 | 116° | 55km/h | 15658m | -9.7m/s | -62.4°C | 3.3% | -1.0hPa | 2.6V | 00:00:00 | 00:00:00 | 00:00:00 | |
| DO3MHA-11 | 2026-09-05 23:54:04 | 46.67338 | 7.45293 | 114° | 57km/h | 15740m | -7.0m/s | -62.0°C | 7.6% | 0hPa | 2.6V | 00:00:00 | 01:20:18 | 00:00:00 | |
| DL1ZP-14 | 2026-09-05 23:54:02 | 46.67355 | 7.45234 | 111° | 58km/h | 15763m | -7.8m/s | -62.1°C | 3.2% | -1.0hPa | 2.6V | 00:00:00 | 00:00:00 | 00:00:00 | |
| HARRO8 | 2026-09-05 23:53:49 | 46.67414 | 7.45013 | 116° | 55km/h | 15848m | -10.8m/s | -61.8°C | 3.1% | -1.0hPa | 2.6V | 00:00:00 | 00:00:00 | 00:00:00 | |
| DB0UT-7 | 2026-09-05 23:53:45 | 46.67442 | 7.44939 | 122° | 60km/h | 15892m | -9.6m/s | -61.5°C | 7.4% | 0hPa | 2.6V | 08:27:00 | 00:00:00 | 00:00:00 | |
| DO3MHA-11 | 2026-09-05 23:53:44 | 46.67450 | 7.44919 | 120° | 60km/h | 15901m | -8.8m/s | -61.6°C | 7.5% | 0hPa | 2.6V | 00:00:00 | 01:19:58 | 00:00:00 | |
| DB0ND-19 | 2026-09-05 23:53:42 | 46.67465 | 7.44880 | 118° | 62km/h | 15916m | -6.7m/s | -61.7°C | 3.1% | -1.0hPa | 2.6V | 00:00:00 | 00:00:00 | 00:00:00 | |
| HASLITAL | 2026-09-05 23:53:39 | 46.67480 | 7.44840 | 118° | 60km/h | 15930m | -6.5m/s | -61.7°C | 3.4% | 0hPa | 2.6V | 08:27:00 | 00:00:00 | 00:00:00 | |
| DO3MHA-11 | 2026-09-05 23:53:34 | 46.67520 | 7.44718 | 117° | 62km/h | 15983m | -8.6m/s | -61.6°C | 7.4% | 0hPa | 2.6V | 00:00:00 | 01:19:48 | 00:00:00 | |
| DO3MHA-11 | 2026-09-05 23:53:24 | 46.67601 | 7.44522 | 123° | 58km/h | 16073m | -9.7m/s | -61.7°C | 7.2% | 0hPa | 2.6V | 00:00:00 | 01:19:38 | 00:00:00 | |
| HARRO8 | 2026-09-05 23:53:18 | 46.67658 | 7.44395 | 122° | 55km/h | 16131m | -7.7m/s | -62.0°C | 2.9% | -1.0hPa | 2.6V | 00:00:00 | 00:00:00 | 00:00:00 | |
| DF7PN | 2026-09-05 23:53:16 | 46.67666 | 7.44378 | 124° | 57km/h | 16139m | -8.7m/s | -62.1°C | 2.9% | -1.0hPa | 2.6V | 00:00:00 | 00:00:00 | 00:00:00 | |
| DB0UT-7 | 2026-09-05 23:53:15 | 46.67674 | 7.44361 | 124° | 58km/h | 16148m | -9.1m/s | -62.0°C | 7.3% | 0hPa | 2.6V | 00:00:00 | 01:19:29 | 00:00:00 | |
| DO3MHA-11 | 2026-09-05 23:53:14 | 46.67682 | 7.44343 | 123° | 60km/h | 16157m | -9.5m/s | -62.0°C | 7.3% | 0hPa | 2.6V | 00:00:00 | 01:19:28 | 00:00:00 | |
| DB0ND-19 | 2026-09-05 23:53:11 | 46.67705 | 7.44291 | 122° | 58km/h | 16184m | -7.0m/s | -62.1°C | 2.8% | -1.0hPa | 2.7V | 00:00:00 | 00:00:00 | 00:00:00 | |
| DO3MHA-11 | 2026-09-05 23:53:04 | 46.67765 | 7.44159 | 129° | 58km/h | 16253m | -12.7m/s | -62.6°C | 7.4% | 0hPa | 2.7V | 00:00:00 | 01:19:18 | 00:00:00 | |
| HARRO8 | 2026-09-05 23:52:47 | 46.67899 | 7.43871 | 114° | 55km/h | 16413m | -9.5m/s | -62.1°C | 2.5% | -1.0hPa | 2.7V | 00:00:00 | 00:00:00 | 00:00:00 | |
| DB0UT-7 | 2026-09-05 23:52:45 | 46.67911 | 7.43832 | 112° | 53km/h | 16429m | -8.0m/s | -62.2°C | 6.9% | 0hPa | 2.7V | 00:00:00 | 00:00:00 | 00:00:00 | |
| DO3MHA-11 | 2026-09-05 23:52:44 | 46.67917 | 7.43811 | 112° | 58km/h | 16436m | -7.8m/s | -62.2°C | 6.9% | 0hPa | 2.7V | 08:28:00 | 01:18:58 | 00:00:00 | |
| DB0ND-19 | 2026-09-05 23:52:40 | 46.67937 | 7.43728 | 108° | 60km/h | 16469m | -9.5m/s | -62.4°C | 2.5% | -1.0hPa | 2.6V | 00:00:00 | 00:00:00 | 00:00:00 | |
| IW2NTF | 2026-09-05 23:52:39 | 46.67953 | 7.43667 | 114° | 58km/h | 16494m | -8.5m/s | -62.5°C | 0% | 0hPa | 2.6V | 08:30:00 | 01:18:51 | 00:00:00 | |
| HASLITAL | 2026-09-05 23:52:37 | 46.67948 | 7.43686 | 113° | 60km/h | 16485m | -9.5m/s | -62.5°C | 2.7% | 0hPa | 2.6V | 08:29:00 | 00:00:00 | 00:00:00 | |
| DO3MHA-11 | 2026-09-05 23:52:34 | 46.67974 | 7.43613 | 123° | 51km/h | 16520m | -6.3m/s | -62.4°C | 7.2% | 0hPa | 2.6V | 00:00:00 | 01:18:48 | 00:00:00 | |
| DO3MHA-11 | 2026-09-05 23:52:24 | 46.68033 | 7.43448 | 111° | 47km/h | 16596m | -8.3m/s | -61.6°C | 6.7% | 0hPa | 2.6V | 00:00:00 | 01:18:38 | 00:00:00 | |
| HASLITAL | 2026-09-05 23:52:17 | 46.68067 | 7.43360 | 121° | 49km/h | 16643m | -8.1m/s | -61.3°C | 2.5% | 0hPa | 2.6V | 08:29:00 | 00:00:00 | 00:00:00 | |
| HARRO8 | 2026-09-05 23:52:16 | 46.68079 | 7.43328 | 115° | 49km/h | 16658m | -7.9m/s | -60.9°C | 2.1% | -1.0hPa | 2.6V | 00:00:00 | 00:00:00 | 00:00:00 | |
| DB0UT-7 | 2026-09-05 23:52:15 | 46.68084 | 7.43311 | 117° | 51km/h | 16665m | -5.1m/s | -60.7°C | 6.3% | 0hPa | 2.6V | 00:00:00 | 01:18:29 | 00:00:00 | |
| DO3MHA-11 | 2026-09-05 23:52:14 | 46.68089 | 7.43295 | 113° | 47km/h | 16672m | -8.6m/s | -60.6°C | 6.2% | 0hPa | 2.7V | 00:00:00 | 01:18:28 | 00:00:00 | |
| DB0ND-19 | 2026-09-05 23:52:09 | 46.68108 | 7.43217 | 105° | 46km/h | 16711m | -8.4m/s | -60.2°C | 2.0% | -1.0hPa | 2.7V | 00:00:00 | 00:00:00 | 00:00:00 | |
| DO3MHA-11 | 2026-09-05 23:52:04 | 46.68126 | 7.43126 | 107° | 55km/h | 16747m | -5.5m/s | -60.2°C | 6.0% | 0hPa | 2.7V | 00:00:00 | 01:18:18 | 00:00:00 | |
| HASLITAL | 2026-09-05 23:51:55 | 46.68173 | 7.42982 | 121° | 49km/h | 16802m | -6.4m/s | -60.3°C | 2.2% | 0hPa | 2.7V | 00:00:00 | 00:00:00 | 00:00:00 | |
| DO3MHA-11 | 2026-09-05 23:51:54 | 46.68185 | 7.42951 | 117° | 51km/h | 16816m | -6.3m/s | -60.2°C | 6.1% | 0hPa | 2.7V | 00:00:00 | 01:18:08 | 00:00:00 | |
| DB0UT-7 | 2026-09-05 23:51:45 | 46.68227 | 7.42794 | 111° | 46km/h | 16876m | -5.3m/s | -59.7°C | 5.8% | 0hPa | 2.7V | 00:00:00 | 00:00:00 | 00:00:00 | |
| DF7PN | 2026-09-05 23:51:43 | 46.68257 | 7.42675 | 110° | 47km/h | 16925m | -6.9m/s | -59.8°C | 1.9% | -1.0hPa | 2.7V | 00:00:00 | 00:00:00 | 00:00:00 | |
| IW2NTF | 2026-09-05 23:51:38 | 46.68272 | 7.42599 | 99° | 38km/h | 16959m | -6.8m/s | -59.7°C | 0% | 0hPa | 2.7V | 08:30:00 | 01:17:47 | 00:00:00 | |
| DB0ND-19 | 2026-09-05 23:51:38 | 46.68264 | 7.42643 | 105° | 42km/h | 16939m | -6.7m/s | -59.7°C | 1.9% | -1.0hPa | 2.6V | 00:00:00 | 00:00:00 | 00:00:00 | |
| HASLITAL | 2026-09-05 23:51:34 | 46.68267 | 7.42628 | 106° | 42km/h | 16946m | -6.9m/s | -59.7°C | 2.1% | 0hPa | 2.6V | 00:00:00 | 00:00:00 | 00:00:00 | |
| DO3MHA-11 | 2026-09-05 23:51:32 | 46.68273 | 7.42585 | 101° | 44km/h | 16965m | -6.2m/s | -59.7°C | 5.8% | 0hPa | 2.6V | 00:00:00 | 01:17:46 | 00:00:00 | |
| IW2NTF | 2026-09-05 23:51:21 | 46.68303 | 7.42314 | 96° | 51km/h | 17090m | -9.2m/s | -60.1°C | 0% | 0hPa | 2.6V | 08:30:00 | 01:17:30 | 00:00:00 | |
| DO3MHA-11 | 2026-09-05 23:51:21 | 46.68293 | 7.42408 | 99° | 51km/h | 17044m | -10.4m/s | -59.9°C | 5.8% | 0hPa | 2.6V | 00:00:00 | 01:17:35 | 00:00:00 | |
| DB0UT-7 | 2026-09-05 23:51:15 | 46.68305 | 7.42295 | 96° | 46km/h | 17100m | -9.6m/s | -60.1°C | 5.8% | 0hPa | 2.6V | 00:00:00 | 01:17:29 | 00:00:00 | |
| HASLITAL | 2026-09-05 23:51:13 | 46.68306 | 7.42278 | 95° | 47km/h | 17109m | -8.9m/s | -60.2°C | 2.2% | 0hPa | 2.6V | 00:00:00 | 00:00:00 | 00:00:00 | |
| DK5PH-5 | 2026-09-05 23:51:12 | 46.68308 | 7.42244 | 95° | 44km/h | 17129m | -9.4m/s | 0°C | 0% | 0hPa | 2.6V | 00:00:00 | 01:17:26 | 00:00:00 | |
| DO3MHA-11 | 2026-09-05 23:51:10 | 46.68311 | 7.42210 | 102° | 46km/h | 17148m | -9.8m/s | -60.3°C | 6.0% | 0hPa | 2.6V | 00:00:00 | 01:17:24 | 08:30:00 | |
| IW2NTF | 2026-09-05 23:51:07 | 46.68337 | 7.42083 | 107° | 44km/h | 17213m | -7.9m/s | -60.2°C | 0% | 0hPa | 2.6V | 08:30:00 | 01:17:16 | 00:00:00 | |
| DB0ND-19 | 2026-09-05 23:51:07 | 46.68320 | 7.42159 | 107° | 46km/h | 17173m | -8.4m/s | -60.1°C | 1.9% | -1.0hPa | 2.6V | 00:00:00 | 00:00:00 | 00:00:00 | |
| DO3MHA-11 | 2026-09-05 23:51:00 | 46.68345 | 7.42051 | 111° | 47km/h | 17226m | -5.5m/s | -60.1°C | 5.9% | 0hPa | 2.6V | 00:00:00 | 01:17:14 | 00:00:00 | |
| HASLITAL | 2026-09-05 23:50:53 | 46.68373 | 7.41953 | 118° | 46km/h | 17261m | -5.1m/s | -60.0°C | 2.1% | 0hPa | 2.6V | 00:00:00 | 00:00:00 | 00:00:00 | |
| IW2NTF | 2026-09-05 23:50:53 | 46.68383 | 7.41923 | 110° | 44km/h | 17271m | -5.5m/s | -59.9°C | 0% | 0hPa | 2.6V | 08:30:00 | 01:17:06 | 00:00:00 | |
| DO3MHA-11 | 2026-09-05 23:50:50 | 46.68390 | 7.41893 | 111° | 46km/h | 17282m | -4.6m/s | -59.8°C | 5.7% | 0hPa | 2.6V | 00:00:00 | 01:17:04 | 00:00:00 | |
| IW2NTF | 2026-09-05 23:50:47 | 46.68421 | 7.41765 | 111° | 47km/h | 17314m | -3.1m/s | -59.8°C | 0% | 0hPa | 2.6V | 08:30:00 | 01:16:56 | 00:00:00 | |
| DB0UT-7 | 2026-09-05 23:50:45 | 46.68409 | 7.41814 | 110° | 46km/h | 17305m | -3.9m/s | -59.8°C | 5.6% | 0hPa | 2.6V | 00:00:00 | 00:00:00 | 00:00:00 | |
| HARRO8 | 2026-09-05 23:50:43 | 46.68421 | 7.41765 | 111° | 47km/h | 17314m | -3.1m/s | -59.9°C | 1.9% | -1.0hPa | 2.6V | 00:00:00 | 00:00:00 | 00:00:00 | |
| DF7PN | 2026-09-05 23:50:41 | 46.68430 | 7.41734 | 112° | 46km/h | 17319m | -1.6m/s | -59.8°C | 2.0% | -1.0hPa | 2.6V | 00:00:00 | 00:00:00 | 00:00:00 | |
| DO3MHA-11 | 2026-09-05 23:50:40 | 46.68430 | 7.41734 | 113° | 44km/h | 17319m | -1.5m/s | -59.8°C | 6.0% | 0hPa | 2.6V | 00:00:00 | 01:16:54 | 00:00:00 | |
| DB0ND-19 | 2026-09-05 23:50:36 | 46.68446 | 7.41676 | 109° | 38km/h | 17319m | 1.5m/s | -59.9°C | 1.9% | -1.0hPa | 2.6V | 00:00:00 | 00:00:00 | 00:00:00 | |
| IW2NTF | 2026-09-05 23:50:33 | 46.68461 | 7.41618 | 111° | 46km/h | 17309m | 2.2m/s | -59.9°C | 0% | 0hPa | 2.6V | 08:30:00 | 01:16:46 | 00:00:00 | |
| HASLITAL | 2026-09-05 23:50:33 | 46.68453 | 7.41648 | 110° | 42km/h | 17314m | 2.4m/s | -59.9°C | 2.1% | 0hPa | 2.6V | 00:00:00 | 00:00:00 | 00:00:00 | |
| DK5PH-5 | 2026-09-05 23:50:31 | 46.68466 | 7.41602 | 112° | 47km/h | 17307m | 2.1m/s | 0°C | 0% | 0hPa | 2.6V | 00:00:00 | 01:16:45 | 00:00:00 | |
| DO3MHA-11 | 2026-09-05 23:50:30 | 46.68470 | 7.41586 | 112° | 47km/h | 17305m | 3.0m/s | -59.8°C | 5.9% | 0hPa | 2.6V | 00:00:00 | 01:16:44 | 00:00:00 | |
| IW2NTF | 2026-09-05 23:50:28 | 46.68505 | 7.41460 | 120° | 49km/h | 17275m | 4.7m/s | -60°C | 0% | 0hPa | 2.6V | 08:30:00 | 01:16:36 | 00:00:00 | |
| DL1ZP-14 | 2026-09-05 23:50:24 | 46.68494 | 7.41492 | 113° | 49km/h | 17284m | 4.1m/s | -59.9°C | 1.9% | -1.0hPa | 2.7V | 00:00:00 | 00:00:00 | 00:00:00 | |
| DO3MHA-11 | 2026-09-05 23:50:20 | 46.68518 | 7.41430 | 121° | 46km/h | 17265m | 4.6m/s | -60.0°C | 5.9% | 0hPa | 2.6V | 00:00:00 | 01:16:34 | 00:00:00 | |
| IW2NTF | 2026-09-05 23:50:17 | 46.68559 | 7.41313 | 117° | 51km/h | 17230m | 5.1m/s | -60.1°C | 0% | 0hPa | 2.6V | 00:00:00 | 01:16:26 | 00:00:00 | |
| DB0UT-7 | 2026-09-05 23:50:15 | 46.68543 | 7.41359 | 116° | 53km/h | 17243m | 4.0m/s | -60.1°C | 5.9% | 0hPa | 2.6V | 00:00:00 | 01:16:29 | 00:00:00 | |
| HARRO8 | 2026-09-05 23:50:12 | 46.68565 | 7.41296 | 117° | 53km/h | 17225m | 4.0m/s | -60.2°C | 1.9% | -1.0hPa | 2.6V | 00:00:00 | 00:00:00 | 00:00:00 | |
| DO3MHA-11 | 2026-09-05 23:50:10 | 46.68571 | 7.41278 | 117° | 51km/h | 17221m | 4.9m/s | -60.1°C | 6.0% | 0hPa | 2.6V | 00:00:00 | 01:16:24 | 00:00:00 | |
| DF7PN | 2026-09-05 23:50:09 | 46.68577 | 7.41261 | 114° | 51km/h | 17216m | 4.9m/s | -60.2°C | -1.0% | -1.0hPa | 2.6V | 00:00:00 | 00:00:00 | 00:00:00 | |
| IW2NTF | 2026-09-05 23:50:08 | 46.68607 | 7.41135 | 106° | 47km/h | 17184m | 4.9m/s | -60.1°C | 0% | 0hPa | 2.6V | 00:00:00 | 01:16:16 | 00:00:00 | |
| DK5PH-5 | 2026-09-05 23:50:01 | 46.68610 | 7.41118 | 107° | 51km/h | 17180m | 3.3m/s | 0°C | 0% | 0hPa | 2.6V | 00:00:00 | 01:16:15 | 00:00:00 | |
| DO3MHA-11 | 2026-09-05 23:50:00 | 46.68614 | 7.41100 | 108° | 53km/h | 17175m | 5.0m/s | -60.1°C | 6.0% | 0hPa | 2.6V | 00:00:00 | 01:16:14 | 00:00:00 | |
| IW2NTF | 2026-09-05 23:49:58 | 46.68641 | 7.40950 | 100° | 57km/h | 17139m | 4.2m/s | -60.4°C | 0% | 0hPa | 2.6V | 00:00:00 | 01:16:06 | 00:00:00 | |
| DL1ZP-14 | 2026-09-05 23:49:53 | 46.68638 | 7.40970 | 102° | 53km/h | 17144m | 5.1m/s | -60.4°C | 2.1% | -1.0hPa | 2.7V | 00:00:00 | 00:00:00 | 00:00:00 | |
| HASLITAL | 2026-09-05 23:49:51 | 46.68640 | 7.40950 | 101° | 58km/h | 17139m | 4.2m/s | -60.4°C | 2.3% | 0hPa | 2.6V | 00:00:00 | 00:00:00 | 00:00:00 | |
| DO3MHA-11 | 2026-09-05 23:49:50 | 46.68645 | 7.40908 | 100° | 51km/h | 17130m | 6.1m/s | -60.2°C | 6.2% | 0hPa | 2.6V | 00:00:00 | 01:16:04 | 00:00:00 | |
| IW2NTF | 2026-09-05 23:49:47 | 46.68659 | 7.40758 | 96° | 47km/h | 17090m | 5.6m/s | -60°C | 0% | 0hPa | 2.6V | 00:00:00 | 01:15:56 | 00:00:00 | |
| DB0UT-7 | 2026-09-05 23:49:45 | 46.68654 | 7.40811 | 99° | 46km/h | 17107m | 4.5m/s | -60.1°C | 6.1% | 0hPa | 2.6V | 00:00:00 | 00:00:00 | 00:00:00 | |
| HARRO8 | 2026-09-05 23:49:41 | 46.68661 | 7.40722 | 95° | 49km/h | 17080m | 4.2m/s | -60.0°C | 2.1% | -1.0hPa | 2.6V | 00:00:00 | 00:00:00 | 00:00:00 | |
| DO3MHA-11 | 2026-09-05 23:49:40 | 46.68661 | 7.40722 | 96° | 51km/h | 17080m | 4.2m/s | -59.9°C | 6.1% | 0hPa | 2.6V | 00:00:00 | 01:15:54 | 08:30:00 | |
| DF7PN | 2026-09-05 23:49:38 | 46.68664 | 7.40686 | 97° | 49km/h | 17070m | 5.4m/s | -59.9°C | -1.0% | -1.0hPa | 2.6V | 00:00:00 | 00:00:00 | 00:00:00 | |
| IW2NTF | 2026-09-05 23:49:37 | 46.68665 | 7.40576 | 92° | 53km/h | 17041m | 5m/s | -60°C | 0% | 0hPa | 2.6V | 00:00:00 | 01:15:46 | 00:00:00 | |
| DB0ND-19 | 2026-09-05 23:49:34 | 46.68666 | 7.40614 | 86° | 49km/h | 17051m | 4.2m/s | -59.9°C | 2.0% | -1.0hPa | 2.6V | 00:00:00 | 00:00:00 | 00:00:00 | |
| DK5PH-5 | 2026-09-05 23:49:31 | 46.68666 | 7.40557 | 95° | 69km/h | 17037m | 4.5m/s | 0°C | 0% | 0hPa | 2.6V | 00:00:00 | 01:15:45 | 00:00:00 | |
| DO3MHA-11 | 2026-09-05 23:49:30 | 46.68667 | 7.40540 | 96° | 46km/h | 17032m | 5.1m/s | -59.9°C | 6.1% | 0hPa | 2.6V | 00:00:00 | 01:15:44 | 00:00:00 | |
| IW2NTF | 2026-09-05 23:49:27 | 46.68686 | 7.40409 | 100° | 44km/h | 16993m | 3.8m/s | -59.9°C | 0% | 0hPa | 2.6V | 00:00:00 | 01:15:36 | 00:00:00 | |
| DL1ZP-14 | 2026-09-05 23:49:22 | 46.68686 | 7.40409 | 100° | 44km/h | 16993m | 3.8m/s | -59.9°C | 2.1% | -1.0hPa | 2.6V | 00:00:00 | 00:00:00 | 00:00:00 | |
| DO3MHA-11 | 2026-09-05 23:49:20 | 46.68690 | 7.40378 | 106° | 40km/h | 16984m | 6.0m/s | -59.8°C | 6.0% | 0hPa | 2.6V | 00:00:00 | 01:15:34 | 00:00:00 | |
| IW2NTF | 2026-09-05 23:49:18 | 46.68719 | 7.40271 | 115° | 44km/h | 16947m | 3.8m/s | -59.7°C | 0% | 0hPa | 2.6V | 00:00:00 | 01:15:26 | 00:00:00 | |
| DB0UT-7 | 2026-09-05 23:49:15 | 46.68706 | 7.40311 | 115° | 49km/h | 16961m | 4.2m/s | -59.7°C | 5.9% | 0hPa | 2.6V | 00:00:00 | 01:15:29 | 08:30:00 | |
| DO3MHA-11 | 2026-09-05 23:49:10 | 46.68727 | 7.40240 | 106° | 47km/h | 16938m | 4.9m/s | -59.7°C | 6.0% | 0hPa | 2.6V | 00:00:00 | 01:15:24 | 00:00:00 | |
| HASLITAL | 2026-09-05 23:49:09 | 46.68727 | 7.40240 | 107° | 46km/h | 16938m | 4.9m/s | -59.8°C | 2.3% | 0hPa | 2.6V | 00:00:00 | 00:00:00 | 00:00:00 | |
| IW2NTF | 2026-09-05 23:49:07 | 46.68752 | 7.40105 | 103° | 49km/h | 16904m | 4.1m/s | -59.8°C | 0% | 0hPa | 2.6V | 00:00:00 | 01:15:16 | 00:00:00 | |
| DB0ND-19 | 2026-09-05 23:49:03 | 46.68749 | 7.40122 | 103° | 46km/h | 16908m | 3.9m/s | -59.9°C | 2.2% | -1.0hPa | 2.6V | 00:00:00 | 00:00:00 | 00:00:00 | |
| DO3MHA-11 | 2026-09-05 23:49:00 | 46.68758 | 7.40067 | 106° | 51km/h | 16894m | 4.6m/s | -59.8°C | 6.1% | 0hPa | 2.6V | 00:00:00 | 01:15:14 | 00:00:00 | |
| IW2NTF | 2026-09-05 23:48:57 | 46.68795 | 7.39925 | 113° | 47km/h | 16857m | 5.3m/s | -60.2°C | 0% | 0hPa | 2.6V | 00:00:00 | 01:15:06 | 00:00:00 | |
| DL1ZP-14 | 2026-09-05 23:48:51 | 46.68836 | 7.39807 | 125° | 55km/h | 16826m | 3.6m/s | -60.3°C | 2.4% | -1.0hPa | 2.6V | 00:00:00 | 00:00:00 | 00:00:00 | |
| DO3MHA-11 | 2026-09-05 23:48:50 | 46.68804 | 7.39892 | 113° | 53km/h | 16848m | 3.6m/s | -60.2°C | 6.4% | 0hPa | 2.7V | 00:00:00 | 01:15:04 | 00:00:00 | |
| HASLITAL | 2026-09-05 23:48:49 | 46.68804 | 7.39892 | 114° | 49km/h | 16848m | 3.7m/s | -60.3°C | 2.6% | 0hPa | 2.7V | 00:00:00 | 00:00:00 | 00:00:00 | |
| DB0UT-7 | 2026-09-05 23:48:45 | 46.68836 | 7.39807 | 126° | 55km/h | 16826m | 3.5m/s | -60.3°C | 6.5% | 0hPa | 2.7V | 00:00:00 | 00:00:00 | 00:00:00 | |
| IW2NTF | 2026-09-05 23:48:43 | 46.68883 | 7.39672 | 109° | 58km/h | 16792m | 6.3m/s | -60.3°C | 0% | 0hPa | 2.7V | 00:00:00 | 01:14:52 | 00:00:00 | |
| DO3MHA-11 | 2026-09-05 23:48:40 | 46.68873 | 7.39713 | 112° | 58km/h | 16803m | 5.5m/s | -60.3°C | 6.6% | 0hPa | 2.6V | 00:00:00 | 01:14:54 | 00:00:00 | |
| HARRO8 | 2026-09-05 23:48:38 | 46.68883 | 7.39672 | 109° | 58km/h | 16792m | 6.3m/s | -60.3°C | 2.4% | -1.0hPa | 2.7V | 00:00:00 | 00:00:00 | 00:00:00 | |
| DB0ND-19 | 2026-09-05 23:48:33 | 46.68917 | 7.39558 | 117° | 57km/h | 16765m | 5.3m/s | -60.3°C | 2.4% | -1.0hPa | 2.7V | 00:00:00 | 00:00:00 | 00:00:00 | |
| IW2NTF | 2026-09-05 23:48:32 | 46.68942 | 7.39477 | 110° | 57km/h | 16747m | 4.6m/s | -60.3°C | 0% | 0hPa | 2.7V | 00:00:00 | 01:14:42 | 00:00:00 | |
| DO3MHA-11 | 2026-09-05 23:48:30 | 46.68930 | 7.39518 | 115° | 53km/h | 16756m | 3.6m/s | -60.2°C | 6.5% | 0hPa | 2.6V | 00:00:00 | 01:14:44 | 00:00:00 | |
| HASLITAL | 2026-09-05 23:48:28 | 46.68936 | 7.39497 | 113° | 60km/h | 16752m | 4.4m/s | -60.3°C | 2.7% | 0hPa | 2.6V | 00:00:00 | 00:00:00 | 00:00:00 | |
| DO3MHA-11 | 2026-09-05 23:48:20 | 46.68971 | 7.39337 | 100° | 51km/h | 16710m | 3.9m/s | -60.2°C | 6.4% | 0hPa | 2.6V | 00:00:00 | 01:14:34 | 00:00:00 | |
| DB0UT-7 | 2026-09-05 23:48:15 | 46.68992 | 7.39241 | 116° | 47km/h | 16689m | 5.3m/s | -60.6°C | 6.7% | 0hPa | 2.6V | 00:00:00 | 01:14:29 | 00:00:00 | |
| DO3MHA-11 | 2026-09-05 23:48:10 | 46.69022 | 7.39165 | 121° | 46km/h | 16665m | 4.3m/s | -60.9°C | 6.9% | 0hPa | 2.6V | 00:00:00 | 01:14:24 | 08:30:00 | |
| HASLITAL | 2026-09-05 23:48:08 | 46.69033 | 7.39139 | 120° | 40km/h | 16655m | 4.0m/s | -61.2°C | 3.0% | 0hPa | 2.6V | 00:00:00 | 00:00:00 | 00:00:00 | |
| HARRO8 | 2026-09-05 23:48:07 | 46.69037 | 7.39125 | 113° | 40km/h | 16652m | 4.6m/s | -61.3°C | 2.7% | -1.0hPa | 2.6V | 00:00:00 | 00:00:00 | 00:00:00 | |
| DB0ND-19 | 2026-09-05 23:48:01 | 46.69062 | 7.39010 | 115° | 51km/h | 16619m | 4.4m/s | -61.7°C | 2.9% | -1.0hPa | 2.6V | 00:00:00 | 00:00:00 | 00:00:00 | |
| DO3MHA-11 | 2026-09-05 23:48:00 | 46.69062 | 7.39010 | 116° | 49km/h | 16620m | 4.3m/s | -61.6°C | 7.3% | 0hPa | 2.6V | 00:00:00 | 01:14:14 | 00:00:00 | |
| IW2NTF | 2026-09-05 23:47:55 | 46.69120 | 7.38871 | 119° | 49km/h | 16577m | 5.5m/s | -61.8°C | 0% | 0hPa | 2.6V | 00:00:00 | 01:14:05 | 00:00:00 | |
| DO3MHA-11 | 2026-09-05 23:47:50 | 46.69125 | 7.38855 | 117° | 53km/h | 16572m | 4.6m/s | -61.7°C | 7.4% | 0hPa | 2.6V | 00:00:00 | 01:14:04 | 00:00:00 | |
| HASLITAL | 2026-09-05 23:47:46 | 46.69143 | 7.38806 | 120° | 53km/h | 16558m | 4.5m/s | -62.1°C | 3.3% | 0hPa | 2.6V | 00:00:00 | 00:00:00 | 00:00:00 | |
| DB0UT-7 | 2026-09-05 23:47:45 | 46.69156 | 7.38771 | 118° | 57km/h | 16547m | 4.9m/s | -62.4°C | 7.8% | 0hPa | 2.6V | 00:00:00 | 00:00:00 | 00:00:00 | |
| IW2NTF | 2026-09-05 23:47:44 | 46.69197 | 7.38666 | 114° | 58km/h | 16520m | 5.4m/s | -62.6°C | 0% | 0hPa | 2.7V | 00:00:00 | 01:13:53 | 00:00:00 | |
| DO3MHA-11 | 2026-09-05 23:47:39 | 46.69197 | 7.38666 | 115° | 55km/h | 16520m | 5.4m/s | -62.5°C | 7.9% | 0hPa | 2.7V | 00:00:00 | 01:13:53 | 00:00:00 | |
| HARRO8 | 2026-09-05 23:47:36 | 46.69213 | 7.38605 | 110° | 57km/h | 16506m | 4.5m/s | -62.6°C | 3.2% | -1.0hPa | 2.7V | 00:00:00 | 00:00:00 | 00:00:00 | |
| IW2NTF | 2026-09-05 23:47:34 | 46.69247 | 7.38475 | 116° | 58km/h | 16474m | 4.7m/s | -62.4°C | 0% | 0hPa | 2.7V | 00:00:00 | 01:13:43 | 00:00:00 | |
| DB0ND-19 | 2026-09-05 23:47:30 | 46.69241 | 7.38494 | 115° | 55km/h | 16478m | 4.6m/s | -62.4°C | 3.3% | -1.0hPa | 2.6V | 00:00:00 | 00:00:00 | 00:00:00 | |
| DO3MHA-11 | 2026-09-05 23:47:29 | 46.69247 | 7.38475 | 117° | 57km/h | 16474m | 4.6m/s | -62.4°C | 8.0% | 0hPa | 2.6V | 00:00:00 | 01:13:43 | 00:00:00 | |
| HASLITAL | 2026-09-05 23:47:26 | 46.69261 | 7.38436 | 117° | 60km/h | 16466m | 4.3m/s | -62.4°C | 3.5% | 0hPa | 2.6V | 00:00:00 | 00:00:00 | 00:00:00 | |
| IW2NTF | 2026-09-05 23:47:24 | 46.69313 | 7.38293 | 116° | 55km/h | 16422m | 7.1m/s | -62.2°C | 0% | 0hPa | 2.6V | 00:00:00 | 01:13:33 | 00:00:00 | |
| DO3MHA-11 | 2026-09-05 23:47:19 | 46.69313 | 7.38293 | 117° | 55km/h | 16422m | 7.0m/s | -62.2°C | 8.1% | 0hPa | 2.7V | 00:00:00 | 01:13:33 | 00:00:00 | |
| DB0UT-7 | 2026-09-05 23:47:15 | 46.69339 | 7.38219 | 116° | 58km/h | 16402m | 7.7m/s | -62.1°C | 7.6% | 0hPa | 2.7V | 00:00:00 | 01:13:29 | 00:00:00 | |
| IW2NTF | 2026-09-05 23:47:13 | 46.69396 | 7.38087 | 129° | 49km/h | 16353m | 5.8m/s | -62.8°C | 0% | 0hPa | 2.7V | 00:00:00 | 01:13:21 | 00:00:00 | |
| DO3MHA-11 | 2026-09-05 23:47:09 | 46.69380 | 7.38114 | 130° | 55km/h | 16366m | 5.5m/s | -62.7°C | 8.2% | 0hPa | 2.6V | 00:00:00 | 01:13:23 | 00:00:00 | |
| HARRO8 | 2026-09-05 23:47:05 | 46.69413 | 7.38059 | 129° | 53km/h | 16339m | 5.2m/s | -62.8°C | 3.5% | -1.0hPa | 2.7V | 00:00:00 | 00:00:00 | 00:00:00 | |
| IW2NTF | 2026-09-05 23:46:59 | 46.69481 | 7.37908 | 117° | 62km/h | 16296m | 5.4m/s | 0°C | 0% | 0hPa | 2.7V | 00:00:00 | 01:13:11 | 00:00:00 | |
| DL1ZP-14 | 2026-09-05 23:46:47 | 46.69581 | 7.37707 | 125° | 62km/h | 16236m | 4.3m/s | -62.5°C | 3.6% | -1.0hPa | 2.7V | 00:00:00 | 00:00:00 | 00:00:00 | |
| DB0UT-7 | 2026-09-05 23:46:45 | 46.69591 | 7.37688 | 127° | 58km/h | 16230m | 8.4m/s | -62.4°C | 8.5% | 0hPa | 2.6V | 00:00:00 | 00:00:00 | 00:00:00 | |
| DO3MHA-11 | 2026-09-05 23:46:38 | 46.69648 | 7.37568 | 124° | 55km/h | 16189m | 1.2m/s | -62.1°C | 8.4% | 0hPa | 2.6V | 00:00:00 | 01:12:52 | 08:30:00 | |
| HARRO8 | 2026-09-05 23:46:34 | 46.69681 | 7.37501 | 127° | 57km/h | 16164m | 5.7m/s | -62.1°C | 3.6% | -1.0hPa | 2.6V | 00:00:00 | 00:00:00 | 00:00:00 | |
| DO3MHA-11 | 2026-09-05 23:46:28 | 46.69727 | 7.37402 | 121° | 58km/h | 16130m | 5.3m/s | -62.0°C | 8.3% | 0hPa | 2.6V | 00:00:00 | 01:12:42 | 00:00:00 | |
| HASLITAL | 2026-09-05 23:46:25 | 46.69742 | 7.37369 | 126° | 55km/h | 16116m | 4.0m/s | -62.0°C | 3.9% | 0hPa | 2.6V | 00:00:00 | 00:00:00 | 00:00:00 | |
| DO3MHA-11 | 2026-09-05 23:46:18 | 46.69805 | 7.37215 | 120° | 66km/h | 16061m | 6.7m/s | -61.8°C | 8.4% | 0hPa | 2.6V | 00:00:00 | 01:12:32 | 00:00:00 | |
| DB0UT-7 | 2026-09-05 23:46:15 | 46.69829 | 7.37155 | 122° | 60km/h | 16045m | 7.6m/s | -61.9°C | 8.5% | 0hPa | 2.6V | 00:00:00 | 01:12:29 | 00:00:00 | |
| DO3MHA-11 | 2026-09-05 23:46:08 | 46.69885 | 7.37006 | 119° | 62km/h | 16003m | 8.7m/s | -61.6°C | 8.3% | 0hPa | 2.7V | 00:00:00 | 01:12:22 | 00:00:00 | |
| HASLITAL | 2026-09-05 23:46:04 | 46.69908 | 7.36949 | 121° | 57km/h | 15985m | 4.5m/s | -61.6°C | 4.0% | 0hPa | 2.8V | 00:00:00 | 00:00:00 | 00:00:00 | |
| HARRO8 | 2026-09-05 23:46:03 | 46.69922 | 7.36912 | 117° | 58km/h | 15973m | 3.1m/s | -61.7°C | 3.9% | -1.0hPa | 2.8V | 00:00:00 | 00:00:00 | 00:00:00 | |
| DF7PN | 2026-09-05 23:46:01 | 46.69936 | 7.36874 | 121° | 60km/h | 15962m | 4.3m/s | 0°C | -1.0% | -1.0hPa | 2.8V | 00:00:00 | 00:00:00 | 00:00:00 | |
| DB0ND-19 | 2026-09-05 23:45:57 | 46.69966 | 7.36793 | 116° | 60km/h | 15937m | 7.9m/s | -61.7°C | 3.9% | -1.0hPa | 2.8V | 00:00:00 | 00:00:00 | 00:00:00 | |
| DO3MHA-11 | 2026-09-05 23:45:56 | 46.69973 | 7.36773 | 118° | 57km/h | 15931m | 3.8m/s | -61.6°C | 8.5% | 0hPa | 2.8V | 00:00:00 | 01:12:10 | 00:00:00 | |
| DO3MHA-11 | 2026-09-05 23:45:46 | 46.70032 | 7.36584 | 116° | 55km/h | 15871m | 6.0m/s | -61.7°C | 8.7% | 0hPa | 2.8V | 00:00:00 | 01:12:00 | 00:00:00 | |
| DL1ZP-14 | 2026-09-05 23:45:45 | 46.70044 | 7.36547 | 114° | 55km/h | 15858m | 5.8m/s | -61.8°C | 4.1% | -1.0hPa | 2.8V | 00:00:00 | 00:00:00 | 00:00:00 | |
| HASLITAL | 2026-09-05 23:45:43 | 46.70044 | 7.36547 | 115° | 55km/h | 15858m | 5.8m/s | -61.8°C | 4.4% | 0hPa | 2.6V | 00:00:00 | 00:00:00 | 00:00:00 | |
| DO3MHA-11 | 2026-09-05 23:45:36 | 46.70084 | 7.36394 | 113° | 57km/h | 15810m | 7.5m/s | -61.8°C | 9.0% | 0hPa | 2.6V | 00:00:00 | 01:11:50 | 00:00:00 | |
| HARRO8 | 2026-09-05 23:45:32 | 46.70105 | 7.36314 | 107° | 58km/h | 15790m | 6.0m/s | -61.9°C | 4.2% | -1.0hPa | 2.6V | 00:00:00 | 00:00:00 | 00:00:00 | |
| DB0ND-19 | 2026-09-05 23:45:26 | 46.70134 | 7.36173 | 106° | 58km/h | 15750m | 4.2m/s | -62.0°C | 4.4% | -1.0hPa | 2.6V | 00:00:00 | 00:00:00 | 00:00:00 | |
| HASLITAL | 2026-09-05 23:45:24 | 46.70138 | 7.36153 | 109° | 58km/h | 15744m | 7.3m/s | -62.0°C | 4.7% | 0hPa | 2.6V | 00:00:00 | 00:00:00 | 00:00:00 | |
| DO3MHA-11 | 2026-09-05 23:45:16 | 46.70182 | 7.36009 | 115° | 51km/h | 15698m | 3.2m/s | -62.2°C | 9.6% | 0hPa | 2.6V | 00:00:00 | 01:11:30 | 00:00:00 | |
| DB0UT-7 | 2026-09-05 23:45:15 | 46.70187 | 7.35991 | 114° | 55km/h | 15694m | 5.1m/s | -62.2°C | 9.5% | 0hPa | 2.6V | 00:00:00 | 01:11:29 | 00:00:00 | |
| DL1ZP-14 | 2026-09-05 23:45:13 | 46.70198 | 7.35955 | 110° | 51km/h | 15680m | 7.6m/s | -62.3°C | 4.7% | -1.0hPa | 2.6V | 00:00:00 | 00:00:00 | 00:00:00 | |
| DO3MHA-11 | 2026-09-05 23:45:06 | 46.70230 | 7.35831 | 111° | 58km/h | 15638m | 4.9m/s | -62.8°C | 10.0% | 0hPa | 2.6V | 00:00:00 | 01:11:20 | 08:30:00 | |
| HARRO8 | 2026-09-05 23:45:01 | 46.70262 | 7.35730 | 121° | 58km/h | 15608m | 4.1m/s | -63.3°C | 5.5% | -1.0hPa | 2.6V | 00:00:00 | 00:00:00 | 00:00:00 | |
| DB0ND-19 | 2026-09-05 23:44:55 | 46.70314 | 7.35611 | 124° | 53km/h | 15566m | 3.1m/s | -63.7°C | 5.8% | -1.0hPa | 2.6V | 00:00:00 | 00:00:00 | 00:00:00 | |
| DB0UT-7 | 2026-09-05 23:44:45 | 46.70385 | 7.35453 | 124° | 71km/h | 15508m | 8.6m/s | -63.9°C | 12.1% | 0hPa | 2.6V | 00:00:00 | 00:00:00 | 08:30:00 | |
| HASLITAL | 2026-09-05 23:44:43 | 46.70394 | 7.35432 | 123° | 68km/h | 15501m | 4.7m/s | -63.9°C | 6.7% | 0hPa | 2.8V | 00:00:00 | 00:00:00 | 00:00:00 | |
| DL1ZP-14 | 2026-09-05 23:44:42 | 46.70412 | 7.35389 | 118° | 69km/h | 15491m | 4.3m/s | -63.9°C | 6.4% | -1.0hPa | 2.8V | 00:00:00 | 00:00:00 | 00:00:00 | |
| DO3MHA-11 | 2026-09-05 23:44:36 | 46.70458 | 7.35254 | 114° | 71km/h | 15450m | 8.1m/s | -63.5°C | 12.3% | 0hPa | 2.7V | 00:00:00 | 01:10:50 | 00:00:00 | |
| HARRO8 | 2026-09-05 23:44:30 | 46.70503 | 7.35115 | 118° | 77km/h | 15415m | 6.3m/s | -63.3°C | 6.4% | -1.0hPa | 2.6V | 00:00:00 | 00:00:00 | 00:00:00 | |
| DO3MHA-11 | 2026-09-05 23:44:26 | 46.70541 | 7.35020 | 121° | 71km/h | 15388m | 8.4m/s | -63.0°C | 12.0% | 0hPa | 2.6V | 00:00:00 | 01:10:40 | 00:00:00 | |
| DB0ND-19 | 2026-09-05 23:44:24 | 46.70566 | 7.34954 | 117° | 66km/h | 15369m | 5.1m/s | -62.9°C | 6.5% | -1.0hPa | 2.6V | 00:00:00 | 00:00:00 | 00:00:00 | |
| HASLITAL | 2026-09-05 23:44:22 | 46.70566 | 7.34954 | 119° | 68km/h | 15369m | 5.1m/s | -62.9°C | 6.9% | 0hPa | 2.6V | 00:00:00 | 00:00:00 | 00:00:00 | |
| DO3MHA-11 | 2026-09-05 23:44:16 | 46.70623 | 7.34786 | 119° | 77km/h | 15319m | 3.0m/s | -63.2°C | 13.1% | 0hPa | 2.6V | 00:00:00 | 01:10:30 | 00:00:00 | |
| DB0UT-7 | 2026-09-05 23:44:15 | 46.70632 | 7.34762 | 119° | 71km/h | 15315m | 5.5m/s | -63.2°C | 13.1% | 0hPa | 2.6V | 00:00:00 | 01:10:29 | 00:00:00 | |
| DL1ZP-14 | 2026-09-05 23:44:11 | 46.70665 | 7.34662 | 114° | 75km/h | 15289m | 7.8m/s | 0°C | -1.0% | -1.0hPa | 2.6V | 00:00:00 | 00:00:00 | 00:00:00 | |
| DO3MHA-11 | 2026-09-05 23:44:06 | 46.70706 | 7.34528 | 114° | 71km/h | 15261m | 6.0m/s | -63.4°C | 13.5% | 0hPa | 2.7V | 00:00:00 | 01:10:20 | 00:00:00 | |
| HASLITAL | 2026-09-05 23:44:02 | 46.70729 | 7.34450 | 113° | 69km/h | 15246m | 4.6m/s | -63.5°C | 8.2% | 0hPa | 2.6V | 00:00:00 | 00:00:00 | 00:00:00 | |
| HARRO8 | 2026-09-05 23:43:59 | 46.70765 | 7.34334 | 120° | 66km/h | 15215m | 3.2m/s | -63.5°C | 8.4% | -1.0hPa | 2.6V | 00:00:00 | 00:00:00 | 00:00:00 | |
| DB0ND-19 | 2026-09-05 23:43:53 | 46.70824 | 7.34182 | 117° | 68km/h | 15174m | 8.6m/s | -63.5°C | 9.1% | -1.0hPa | 2.6V | 00:00:00 | 00:00:00 | 00:00:00 | |
| DO3MHA-11 | 2026-09-05 23:43:46 | 46.70864 | 7.34076 | 118° | 66km/h | 15142m | 4.3m/s | -63.8°C | 16.6% | 0hPa | 2.6V | 00:00:00 | 01:10:00 | 00:00:00 | |
| DB0UT-7 | 2026-09-05 23:43:45 | 46.70872 | 7.34053 | 116° | 60km/h | 15136m | 7.7m/s | -63.8°C | 16.8% | 0hPa | 2.6V | 00:00:00 | 00:00:00 | 00:00:00 | |
| HASLITAL | 2026-09-05 23:43:41 | 46.70892 | 7.33985 | 113° | 68km/h | 15119m | 8.3m/s | -63.9°C | 10.9% | 0hPa | 2.6V | 00:00:00 | 00:00:00 | 00:00:00 | |
| DO3MHA-11 | 2026-09-05 23:43:36 | 46.70928 | 7.33853 | 114° | 60km/h | 15080m | 3.0m/s | -63.7°C | 18.3% | 0hPa | 2.6V | 00:00:00 | 01:09:50 | 08:30:00 | |
| HARRO8 | 2026-09-05 23:43:28 | 46.70971 | 7.33661 | 105° | 57km/h | 15032m | 4.8m/s | -63.7°C | 12.4% | -1.0hPa | 2.7V | 00:00:00 | 00:00:00 | 00:00:00 | |
| DO3MHA-12 | 2026-09-05 23:43:26 | 46.70974 | 7.33640 | 105° | 55km/h | 15025m | 7.4m/s | -63.6°C | 19.7% | 0hPa | 2.7V | 00:00:00 | 01:09:40 | 08:30:00 | |
| DB0ND-19 | 2026-09-05 23:43:22 | 46.70995 | 7.33542 | 108° | 55km/h | 14996m | 7.4m/s | -63.5°C | 13.8% | -1.0hPa | 2.7V | 00:00:00 | 00:00:00 | 00:00:00 | |
| HASLITAL | 2026-09-05 23:43:20 | 46.70995 | 7.33542 | 109° | 55km/h | 14996m | 7.4m/s | -63.5°C | 14.2% | 0hPa | 2.7V | 00:00:00 | 00:00:00 | 00:00:00 | |
| DO3MHA-12 | 2026-09-05 23:43:16 | 46.71019 | 7.33447 | 116° | 53km/h | 14971m | 3.0m/s | -63.4°C | 22.5% | 0hPa | 2.7V | 00:00:00 | 01:09:30 | 00:00:00 | |
| DB0UT-7 | 2026-09-05 23:43:15 | 46.71025 | 7.33430 | 117° | 58km/h | 14968m | 5.4m/s | -63.4°C | 22.4% | 0hPa | 2.7V | 00:00:00 | 01:09:29 | 00:00:00 | |
| DO3MHA-11 | 2026-09-05 23:43:06 | 46.71071 | 7.33268 | 106° | 57km/h | 14912m | 5.5m/s | -64.2°C | 26.1% | 0hPa | 2.7V | 00:00:00 | 01:09:20 | 00:00:00 | |
| HARRO8 | 2026-09-05 23:42:57 | 46.71130 | 7.33077 | 120° | 62km/h | 14845m | 8.4m/s | -64.9°C | 21.8% | -1.0hPa | 2.7V | 00:00:00 | 00:00:00 | 00:00:00 | |
| DB0ND-19 | 2026-09-05 23:42:51 | 46.71172 | 7.32946 | 109° | 60km/h | 14808m | 5.4m/s | -65.6°C | 24.6% | -1.0hPa | 2.7V | 00:00:00 | 00:00:00 | 00:00:00 | |
| DO3MHA-11 | 2026-09-05 23:42:46 | 46.71195 | 7.32863 | 112° | 66km/h | 14786m | 6.0m/s | -65.8°C | 37.5% | 0hPa | 2.7V | 00:00:00 | 01:09:00 | 00:00:00 | |
| DB0UT-7 | 2026-09-05 23:42:45 | 46.71200 | 7.32841 | 106° | 64km/h | 14781m | 3.3m/s | -65.8°C | 38.4% | 0hPa | 2.7V | 00:00:00 | 00:00:00 | 00:00:00 | |
| HASLITAL | 2026-09-05 23:42:39 | 46.71218 | 7.32719 | 99° | 66km/h | 14755m | 5.4m/s | -66.0°C | 28.7% | 0hPa | 2.7V | 00:00:00 | 00:00:00 | 00:00:00 | |
| DO3MHA-11 | 2026-09-05 23:42:36 | 46.71226 | 7.32624 | 97° | 68km/h | 14728m | 5.3m/s | -66.0°C | 40.0% | 0hPa | 2.7V | 00:00:00 | 01:08:50 | 00:00:00 | |
| DO3MHA-11 | 2026-09-05 23:42:26 | 46.71259 | 7.32383 | 103° | 58km/h | 14668m | 5.5m/s | -66.2°C | 43.1% | 0hPa | 2.6V | 00:00:00 | 01:08:40 | 00:00:00 | |
| HARRO8 | 2026-09-05 23:42:25 | 46.71263 | 7.32361 | 104° | 60km/h | 14663m | 3.6m/s | -66.4°C | 32.6% | -1.0hPa | 2.6V | 00:00:00 | 00:00:00 | 00:00:00 | |
| HASLITAL | 2026-09-05 23:42:19 | 46.71279 | 7.32260 | 102° | 58km/h | 14636m | 4.4m/s | -67.6°C | 36.0% | 0hPa | 2.6V | 00:00:00 | 00:00:00 | 00:00:00 | |
| DO3MHA-11 | 2026-09-05 23:42:16 | 46.71290 | 7.32175 | 105° | 62km/h | 14610m | 4.0m/s | -68.1°C | 51.6% | 0hPa | 2.6V | 00:00:00 | 01:08:30 | 00:00:00 | |
| DB0UT-7 | 2026-09-05 23:42:15 | 46.71293 | 7.32154 | 104° | 62km/h | 14604m | 7.1m/s | -68.1°C | 51.3% | 0hPa | 2.6V | 00:00:00 | 01:08:29 | 00:00:00 | |
| DO3MHA-11 | 2026-09-05 23:42:06 | 46.71336 | 7.31955 | 116° | 58km/h | 14554m | 5.1m/s | -68.2°C | 54.4% | 0hPa | 2.6V | 00:00:00 | 01:08:20 | 08:30:00 | |
| DH7VM-15 | 2026-09-05 23:42:02 | 46.71359 | 7.31897 | 124° | 57km/h | 14536m | 7.8m/s | 0°C | 0% | 0hPa | 2.6V | 00:00:00 | 00:00:00 | 00:00:00 | |
| HARRO8 | 2026-09-05 23:41:54 | 46.71428 | 7.31737 | 116° | 57km/h | 14481m | 7.5m/s | -68.7°C | 44.3% | -1.0hPa | 2.6V | 00:00:00 | 00:00:00 | 00:00:00 | |
| DB0ND-19 | 2026-09-05 23:41:49 | 46.71482 | 7.31617 | 126° | 69km/h | 14447m | 6.1m/s | -68.4°C | 42.8% | -1.0hPa | 2.6V | 00:00:00 | 00:00:00 | 00:00:00 | |
| DB0UT-7 | 2026-09-05 23:41:46 | 46.71510 | 7.31557 | 123° | 64km/h | 14429m | 6.7m/s | -68.2°C | 56.7% | 0hPa | 2.6V | 00:00:00 | 00:00:00 | 00:00:00 | |
| HASLITAL | 2026-09-05 23:41:38 | 46.71559 | 7.31453 | 125° | 58km/h | 14388m | 7.3m/s | -68.0°C | 43.8% | 0hPa | 2.7V | 00:00:00 | 00:00:00 | 00:00:00 | |
| DO3MHA-11 | 2026-09-05 23:41:36 | 46.71584 | 7.31395 | 120° | 64km/h | 14363m | 8.2m/s | -67.9°C | 56.1% | 0hPa | 2.7V | 00:00:00 | 01:07:50 | 00:00:00 | |
| DO3MHA-11 | 2026-09-05 23:41:26 | 46.71675 | 7.31201 | 120° | 66km/h | 14285m | 4.4m/s | -69.2°C | 60.6% | 0hPa | 2.7V | 00:00:00 | 01:07:40 | 00:00:00 | |
| HARRO8 | 2026-09-05 23:41:23 | 46.71696 | 7.31135 | 110° | 69km/h | 14267m | 4.9m/s | -69.3°C | 45.6% | -1.0hPa | 2.7V | 00:00:00 | 00:00:00 | 00:00:00 | |
| HASLITAL | 2026-09-05 23:41:17 | 46.71725 | 7.31020 | 106° | 66km/h | 14234m | 4.4m/s | -69.7°C | 47.2% | 0hPa | 2.7V | 00:00:00 | 00:00:00 | 00:00:00 | |
| DO3MHA-11 | 2026-09-05 23:41:16 | 46.71734 | 7.30972 | 108° | 71km/h | 14222m | 4.8m/s | -69.9°C | 64.5% | 0hPa | 2.7V | 00:00:00 | 01:07:30 | 00:00:00 | |
| DB0UT-7 | 2026-09-05 23:41:15 | 46.71740 | 7.30947 | 108° | 73km/h | 14215m | 7.9m/s | -69.9°C | 64.3% | 0hPa | 2.7V | 00:00:00 | 01:07:29 | 00:00:00 | |
| DO3MHA-11 | 2026-09-05 23:41:06 | 46.71793 | 7.30722 | 106° | 71km/h | 14166m | 8.2m/s | -69.6°C | 62.0% | 0hPa | 2.7V | 00:00:00 | 01:07:20 | 00:00:00 | |
| HARRO8 | 2026-09-05 23:40:52 | 46.71873 | 7.30367 | 108° | 80km/h | 14078m | 8.5m/s | -68.9°C | 43.9% | -1.0hPa | 2.7V | 00:00:00 | 00:00:00 | 00:00:00 | |
| DO3MHA-11 | 2026-09-05 23:40:46 | 46.71906 | 7.30202 | 105° | 75km/h | 14037m | 4.6m/s | -68.5°C | 55.9% | 0hPa | 2.7V | 00:00:00 | 01:07:00 | 00:00:00 | |
| DB0UT-7 | 2026-09-05 23:40:45 | 46.71910 | 7.30179 | 103° | 78km/h | 14030m | 10.0m/s | -68.4°C | 55.4% | 0hPa | 2.7V | 00:00:00 | 00:00:00 | 00:00:00 | |
| DO3MHA-12 | 2026-09-05 23:40:39 | 46.71941 | 7.30020 | 111° | 77km/h | 13991m | 5.6m/s | -68.2°C | 54.6% | 0hPa | 2.7V | 00:00:00 | 01:06:53 | 00:00:00 | |
| DO3MHA-11 | 2026-09-05 23:40:36 | 46.71960 | 7.29939 | 108° | 77km/h | 13970m | 4.6m/s | -68.0°C | 54.4% | 0hPa | 2.7V | 00:00:00 | 01:06:50 | 08:30:00 | |
| HASLITAL | 2026-09-05 23:40:35 | 46.71960 | 7.29939 | 108° | 80km/h | 13970m | 4.6m/s | -68.0°C | 40.6% | 0hPa | 2.6V | 00:00:00 | 00:00:00 | 00:00:00 | |
| DO3MHA-12 | 2026-09-05 23:40:29 | 46.71995 | 7.29750 | 106° | 80km/h | 13923m | 3.5m/s | -67.7°C | 53.5% | 0hPa | 2.6V | 00:00:00 | 01:06:43 | 00:00:00 | |
| DO3MHA-11 | 2026-09-05 23:40:26 | 46.72011 | 7.29666 | 105° | 82km/h | 13905m | 4.7m/s | -67.5°C | 52.3% | 0hPa | 2.7V | 00:00:00 | 01:06:40 | 00:00:00 | |
| DK5PH-5 | 2026-09-05 23:40:22 | 46.72032 | 7.29553 | 107° | 80km/h | 13882m | 5.5m/s | 0°C | 0% | 0hPa | 2.7V | 00:00:00 | 01:06:36 | 00:00:00 | |
| HARRO8 | 2026-09-05 23:40:21 | 46.72037 | 7.29525 | 106° | 80km/h | 13877m | 5.6m/s | -67.4°C | 37.3% | -1.0hPa | 2.7V | 00:00:00 | 00:00:00 | 00:00:00 | |
| DO3MHA-12 | 2026-09-05 23:40:19 | 46.72048 | 7.29467 | 104° | 80km/h | 13862m | 7.1m/s | -67.2°C | 50.6% | 0hPa | 2.7V | 00:00:00 | 01:06:33 | 00:00:00 | |
| DH7VM-15 | 2026-09-05 23:40:17 | 46.72056 | 7.29405 | 100° | 86km/h | 13848m | 7.3m/s | 0°C | 0% | 0hPa | 2.7V | 00:00:00 | 00:00:00 | 00:00:00 | |
| DO3MHA-11 | 2026-09-05 23:40:16 | 46.72060 | 7.29375 | 99° | 77km/h | 13843m | 3.5m/s | -67.1°C | 51.3% | 0hPa | 2.7V | 00:00:00 | 01:06:30 | 00:00:00 | |
| DB0UT-7 | 2026-09-05 23:40:15 | 46.72062 | 7.29345 | 99° | 75km/h | 13837m | 7.9m/s | -67.1°C | 50.7% | 0hPa | 2.7V | 00:00:00 | 01:06:29 | 08:30:00 | |
| DO3MHA-12 | 2026-09-05 23:40:09 | 46.72090 | 7.29185 | 102° | 75km/h | 13801m | 6.5m/s | -66.9°C | 49.5% | 0hPa | 2.6V | 00:00:00 | 01:06:23 | 00:00:00 | |
| DO3MHA-11 | 2026-09-05 23:40:06 | 46.72100 | 7.29097 | 99° | 75km/h | 13780m | 3.4m/s | -66.8°C | 49.7% | 0hPa | 2.6V | 00:00:00 | 01:06:20 | 00:00:00 | |
| HARRO8 | 2026-09-05 23:39:50 | 46.72139 | 7.28666 | 86° | 68km/h | 13683m | 5.5m/s | -66.4°C | 37.6% | -1.0hPa | 2.6V | 00:00:00 | 00:00:00 | 00:00:00 | |
| DO3MHA-11 | 2026-09-05 23:39:46 | 46.72137 | 7.28564 | 92° | 71km/h | 13662m | 8.3m/s | -66.2°C | 49.2% | 0hPa | 2.6V | 00:00:00 | 01:06:00 | 00:00:00 | |
| DB0UT-7 | 2026-09-05 23:39:45 | 46.72138 | 7.28538 | 95° | 68km/h | 13654m | 6.7m/s | -66.2°C | 48.3% | 0hPa | 2.6V | 00:00:00 | 00:00:00 | 00:00:00 | |
| DO3MHA-12 | 2026-09-05 23:39:37 | 46.72149 | 7.28330 | 93° | 64km/h | 13599m | 4.7m/s | -65.9°C | 49.2% | 0hPa | 2.6V | 00:00:00 | 01:05:51 | 00:00:00 | |
| DO3MHA-11 | 2026-09-05 23:39:36 | 46.72150 | 7.28306 | 94° | 66km/h | 13592m | 8.1m/s | -65.8°C | 49.0% | 0hPa | 2.6V | 00:00:00 | 01:05:50 | 00:00:00 | |
| HASLITAL | 2026-09-05 23:39:35 | 46.72150 | 7.28306 | 95° | 64km/h | 13592m | 8.1m/s | -65.9°C | 36.9% | 0hPa | 2.6V | 00:00:00 | 00:00:00 | 00:00:00 | |
| DO3MHA-12 | 2026-09-05 23:39:27 | 46.72171 | 7.28094 | 99° | 66km/h | 13538m | 9.7m/s | -65.6°C | 49.3% | 0hPa | 2.6V | 00:00:00 | 01:05:41 | 00:00:00 | |
| DO3MHA-11 | 2026-09-05 23:39:26 | 46.72173 | 7.28067 | 97° | 66km/h | 13530m | 6.5m/s | -65.5°C | 49.5% | 0hPa | 2.6V | 00:00:00 | 01:05:40 | 00:00:00 | |
| DB0ND-19 | 2026-09-05 23:39:22 | 46.72189 | 7.27746 | 94° | 71km/h | 13449m | 4.4m/s | -65.3°C | 39.3% | -1.0hPa | 2.6V | 00:00:00 | 00:00:00 | 00:00:00 | |
| DO3MHA-12 | 2026-09-05 23:39:07 | 46.72190 | 7.27578 | 90° | 68km/h | 13411m | 7.3m/s | -65.3°C | 54.6% | 0hPa | 2.6V | 00:00:00 | 01:05:21 | 00:00:00 | |
| DO3MHA-11 | 2026-09-05 23:39:06 | 46.72190 | 7.27552 | 90° | 68km/h | 13402m | 4.9m/s | -65.2°C | 55.2% | 0hPa | 2.6V | 00:00:00 | 01:05:20 | 08:30:00 | |
| HARRO8 | 2026-09-05 23:38:48 | 46.72171 | 7.27111 | 84° | 62km/h | 13318m | 6.0m/s | -64.6°C | 42.5% | -1.0hPa | 2.7V | 00:00:00 | 00:00:00 | 00:00:00 | |
| DO3MHA-12 | 2026-09-05 23:38:47 | 46.72169 | 7.27088 | 85° | 62km/h | 13312m | 5.2m/s | -64.5°C | 56.0% | 0hPa | 2.7V | 00:00:00 | 01:05:01 | 00:00:00 | |
| DO3MHA-11 | 2026-09-05 23:38:46 | 46.72168 | 7.27065 | 85° | 62km/h | 13308m | 5.2m/s | -64.5°C | 55.8% | 0hPa | 2.6V | 00:00:00 | 01:05:00 | 00:00:00 | |
| DB0UT-7 | 2026-09-05 23:38:45 | 46.72166 | 7.27042 | 85° | 62km/h | 13300m | 9.9m/s | -64.4°C | 56.1% | 0hPa | 2.6V | 00:00:00 | 00:00:00 | 00:00:00 | |
| DB0ND-19 | 2026-09-05 23:38:42 | 46.72165 | 7.26953 | 90° | 60km/h | 13277m | 5.9m/s | -64.3°C | 43.7% | -1.0hPa | 2.7V | 00:00:00 | 00:00:00 | 00:00:00 | |
| DO3MHA-12 | 2026-09-05 23:38:37 | 46.72162 | 7.26863 | 84° | 62km/h | 13251m | 4.2m/s | -64.1°C | 57.7% | 0hPa | 2.7V | 00:00:00 | 01:04:51 | 00:00:00 | |
| DO3MHA-11 | 2026-09-05 23:38:36 | 46.72160 | 7.26840 | 82° | 62km/h | 13246m | 4.6m/s | -64.1°C | 57.8% | 0hPa | 2.7V | 00:00:00 | 01:04:50 | 00:00:00 | |
| HASLITAL | 2026-09-05 23:38:33 | 46.72156 | 7.26793 | 85° | 64km/h | 13236m | 4.5m/s | -64.1°C | 0% | 0hPa | 2.7V | 00:00:00 | 00:00:00 | 00:00:00 | |
| DO3MHA-12 | 2026-09-05 23:38:27 | 46.72156 | 7.26634 | 94° | 64km/h | 13191m | 9.6m/s | -63.7°C | 57.8% | 0hPa | 2.7V | 00:00:00 | 01:04:41 | 00:00:00 | |
| DO3MHA-11 | 2026-09-05 23:38:26 | 46.72156 | 7.26611 | 93° | 64km/h | 13184m | 4.9m/s | -63.7°C | 58.0% | 0hPa | 2.7V | 00:00:00 | 01:04:40 | 00:00:00 | |
| HARRO8 | 2026-09-05 23:38:17 | 46.72157 | 7.26400 | 96° | 62km/h | 13132m | 5.9m/s | 0°C | -1.0% | -1.0hPa | 2.7V | 00:00:00 | 00:00:00 | 00:00:00 | |
| DO3MHA-11 | 2026-09-05 23:38:16 | 46.72159 | 7.26377 | 98° | 66km/h | 13127m | 4.2m/s | -63.2°C | 58.5% | 0hPa | 2.7V | 00:00:00 | 01:04:30 | 00:00:00 | |
| DO3MHA-12 | 2026-09-05 23:38:15 | 46.72161 | 7.26354 | 97° | 66km/h | 13121m | 7.6m/s | -63.2°C | 58.4% | 0hPa | 2.7V | 00:00:00 | 01:04:29 | 08:30:00 | |
| HASLITAL | 2026-09-05 23:38:13 | 46.72162 | 7.26330 | 95° | 66km/h | 13114m | 5.8m/s | 0°C | 0% | 0hPa | 2.7V | 00:00:00 | 00:00:00 | 00:00:00 | |
| DB0ND-19 | 2026-09-05 23:38:11 | 46.72168 | 7.26233 | 96° | 68km/h | 13093m | 5.9m/s | -63.1°C | 45.9% | -1.0hPa | 2.7V | 00:00:00 | 00:00:00 | 00:00:00 | |
| DO3MHA-11 | 2026-09-05 23:38:06 | 46.72178 | 7.26137 | 100° | 60km/h | 13067m | 5.2m/s | -62.9°C | 60.1% | 0hPa | 2.7V | 00:00:00 | 01:04:20 | 00:00:00 | |
| DO3MHA-11 | 2026-09-05 23:37:56 | 46.72193 | 7.25916 | 91° | 64km/h | 13006m | 4.6m/s | -62.5°C | 60.1% | 0hPa | 2.6V | 00:00:00 | 01:04:10 | 00:00:00 | |
| HASLITAL | 2026-09-05 23:37:52 | 46.72195 | 7.25845 | 97° | 66km/h | 12990m | 5.0m/s | 0°C | 0% | 0hPa | 2.6V | 00:00:00 | 00:00:00 | 00:00:00 | |
| DO3MHA-11 | 2026-09-05 23:37:46 | 46.72212 | 7.25684 | 97° | 57km/h | 12948m | 7.3m/s | -62.0°C | 58.4% | 0hPa | 2.6V | 00:00:00 | 01:04:00 | 00:00:00 | |
| DB0UT-7 | 2026-09-05 23:37:45 | 46.72214 | 7.25665 | 96° | 58km/h | 12941m | 5.4m/s | -61.9°C | 58.7% | 0hPa | 2.6V | 00:00:00 | 00:00:00 | 00:00:00 | |
| DB0ND-19 | 2026-09-05 23:37:40 | 46.72220 | 7.25562 | 97° | 55km/h | 12914m | 6.5m/s | -61.7°C | 45.6% | -1.0hPa | 2.6V | 00:00:00 | 00:00:00 | 00:00:00 | |
| DO3MHA-11 | 2026-09-05 23:37:36 | 46.72229 | 7.25478 | 98° | 58km/h | 12890m | 7.7m/s | -61.5°C | 58.5% | 0hPa | 2.6V | 00:00:00 | 01:03:50 | 08:30:00 | |
| DO3MHA-11 | 2026-09-05 23:37:26 | 46.72241 | 7.25263 | 97° | 58km/h | 12828m | 5.6m/s | -61.1°C | 58.4% | 0hPa | 2.7V | 00:00:00 | 01:03:40 | 00:00:00 | |
| HASLITAL | 2026-09-05 23:37:17 | 46.72255 | 7.25089 | 95° | 58km/h | 12784m | 6.5m/s | 0°C | 0% | 0hPa | 2.7V | 00:00:00 | 00:00:00 | 00:00:00 | |
| DO3MHA-11 | 2026-09-05 23:37:16 | 46.72255 | 7.25048 | 89° | 55km/h | 12773m | 5.9m/s | -60.6°C | 54.8% | 0hPa | 2.7V | 00:00:00 | 01:03:30 | 00:00:00 | |
| DB0UT-7 | 2026-09-05 23:37:15 | 46.72255 | 7.25029 | 86° | 55km/h | 12766m | 7.9m/s | -60.6°C | 54.8% | 0hPa | 2.7V | 00:00:00 | 01:03:29 | 00:00:00 | |
| DB0ND-19 | 2026-09-05 23:37:09 | 46.72265 | 7.24908 | 105° | 60km/h | 12731m | 4.8m/s | -60.4°C | 42.8% | -1.0hPa | 2.7V | 00:00:00 | 00:00:00 | 00:00:00 | |
| DO3MHA-11 | 2026-09-05 23:37:06 | 46.72275 | 7.24843 | 100° | 55km/h | 12718m | 5.8m/s | -60.2°C | 53.3% | 0hPa | 2.7V | 00:00:00 | 01:03:20 | 00:00:00 | |
| DO3MHA-11 | 2026-09-05 23:36:56 | 46.72294 | 7.24640 | 100° | 49km/h | 12661m | 6.3m/s | -59.7°C | 52.1% | 0hPa | 2.7V | 00:00:00 | 01:03:10 | 00:00:00 | |
| DO3MHA-12 | 2026-09-05 23:36:52 | 46.72296 | 7.24574 | 88° | 51km/h | 12641m | 3.4m/s | -59.5°C | 53.2% | 0hPa | 2.7V | 00:00:00 | 01:03:06 | 00:00:00 | |
| DO3MHA-11 | 2026-09-05 23:36:46 | 46.72305 | 7.24457 | 106° | 57km/h | 12608m | 6.7m/s | -59.2°C | 50.0% | 0hPa | 2.7V | 00:00:00 | 01:03:00 | 00:00:00 | |
| DB0UT-7 | 2026-09-05 23:36:45 | 46.72308 | 7.24437 | 107° | 57km/h | 12602m | 4.6m/s | -59.2°C | 50.2% | 0hPa | 2.7V | 00:00:00 | 00:00:00 | 00:00:00 | |
| DB0ND-19 | 2026-09-05 23:36:39 | 46.72337 | 7.24189 | 102° | 58km/h | 12531m | 5.0m/s | -58.6°C | 39.3% | -1.0hPa | 2.7V | 00:00:00 | 00:00:00 | 00:00:00 | |
| DO3MHA-11 | 2026-09-05 23:36:28 | 46.72345 | 7.24087 | 91° | 57km/h | 12499m | 3.1m/s | -58.3°C | 49.9% | 0hPa | 2.7V | 00:00:00 | 01:02:42 | 00:00:00 | |
| DH7VM-15 | 2026-09-05 23:36:21 | 46.72345 | 7.23965 | 94° | 57km/h | 12464m | 7.5m/s | 0°C | 0% | 0hPa | 2.6V | 00:00:00 | 00:00:00 | 00:00:00 | |
| DO3MHA-11 | 2026-09-05 23:36:18 | 46.72350 | 7.23877 | 93° | 58km/h | 12440m | 5.1m/s | -57.8°C | 50.1% | 0hPa | 2.6V | 00:00:00 | 01:02:32 | 00:00:00 | |
| DB0UT-7 | 2026-09-05 23:36:15 | 46.72351 | 7.23812 | 91° | 55km/h | 12424m | 2.5m/s | -57.6°C | 50.0% | 0hPa | 2.6V | 00:00:00 | 01:02:29 | 00:00:00 | |
| DO3MHA-11 | 2026-09-05 23:36:08 | 46.72360 | 7.23662 | 98° | 51km/h | 12383m | 4.0m/s | -57.2°C | 49.5% | 0hPa | 2.6V | 00:00:00 | 01:02:22 | 00:00:00 | |
| DB0ND-19 | 2026-09-05 23:36:07 | 46.72362 | 7.23642 | 96° | 57km/h | 12376m | 8.6m/s | -57.2°C | 39.4% | -1.0hPa | 2.6V | 00:00:00 | 00:00:00 | 00:00:00 | |
| DO3MHA-11 | 2026-09-05 23:35:56 | 46.72382 | 7.23439 | 98° | 55km/h | 12307m | 5.6m/s | -56.6°C | 52.8% | 0hPa | 2.6V | 00:00:00 | 01:02:10 | 08:30:00 | |
| DO3MHA-11 | 2026-09-05 23:35:46 | 46.72399 | 7.23238 | 102° | 58km/h | 12251m | 2.8m/s | -56.3°C | 59.7% | 0hPa | 2.6V | 00:00:00 | 01:02:00 | 00:00:00 | |
| DB0UT-7 | 2026-09-05 23:35:45 | 46.72402 | 7.23219 | 101° | 60km/h | 12246m | 6.7m/s | -56.3°C | 59.7% | 0hPa | 2.6V | 00:00:00 | 00:00:00 | 08:30:00 | |
| DO3MHA-11 | 2026-09-05 23:35:36 | 46.72424 | 7.23028 | 100° | 58km/h | 12194m | 5.7m/s | -55.9°C | 58.4% | 0hPa | 2.7V | 00:00:00 | 01:01:50 | 00:00:00 | |
| DO3MHA-12 | 2026-09-05 23:35:32 | 46.72432 | 7.22943 | 96° | 64km/h | 12168m | 3.9m/s | -55.8°C | 55.4% | 0hPa | 2.7V | 00:00:00 | 01:01:46 | 00:00:00 | |
| DO3MHA-11 | 2026-09-05 23:35:26 | 46.72439 | 7.22815 | 91° | 62km/h | 12137m | 5.3m/s | -55.5°C | 51.2% | 0hPa | 2.7V | 00:00:00 | 01:01:40 | 00:00:00 | |
| DO3MHA-12 | 2026-09-05 23:35:20 | 46.72443 | 7.22671 | 98° | 60km/h | 12102m | 6.3m/s | -55.3°C | 48.7% | 0hPa | 2.6V | 00:00:00 | 01:01:34 | 00:00:00 | |
| DO3MHA-11 | 2026-09-05 23:35:16 | 46.72451 | 7.22586 | 96° | 62km/h | 12080m | 3.1m/s | -55.1°C | 46.9% | 0hPa | 2.7V | 00:00:00 | 01:01:30 | 00:00:00 | |
| DB0UT-7 | 2026-09-05 23:35:15 | 46.72453 | 7.22564 | 95° | 58km/h | 12075m | 7.8m/s | -55.0°C | 45.8% | 0hPa | 2.7V | 00:00:00 | 01:01:29 | 00:00:00 | |
| DO3MHA-12 | 2026-09-05 23:35:09 | 46.72459 | 7.22428 | 97° | 57km/h | 12040m | 4.2m/s | -54.7°C | 44.7% | 0hPa | 2.7V | 00:00:00 | 01:01:23 | 00:00:00 | |
| DO3MHA-11 | 2026-09-05 23:35:06 | 46.72465 | 7.22360 | 100° | 55km/h | 12023m | 7.0m/s | -54.5°C | 44.6% | 0hPa | 2.7V | 00:00:00 | 01:01:20 | 00:00:00 | |
| DB0ND-19 | 2026-09-05 23:35:05 | 46.72468 | 7.22340 | 100° | 55km/h | 12016m | 5.5m/s | -54.5°C | 35.5% | -1.0hPa | 2.7V | 00:00:00 | 00:00:00 | 00:00:00 | |
| DO3MHA-12 | 2026-09-05 23:34:59 | 46.72488 | 7.22223 | 103° | 55km/h | 11984m | 4.5m/s | -54.2°C | 42.4% | 0hPa | 2.7V | 00:00:00 | 01:01:13 | 00:00:00 | |
| DO3MHA-11 | 2026-09-05 23:34:56 | 46.72495 | 7.22164 | 97° | 58km/h | 11965m | 4.1m/s | -54.1°C | 41.8% | 0hPa | 2.7V | 00:00:00 | 01:01:10 | 00:00:00 | |
| DO3MHA-12 | 2026-09-05 23:34:49 | 46.72508 | 7.22022 | 98° | 60km/h | 11923m | 6.7m/s | -53.7°C | 39.3% | 0hPa | 2.7V | 00:00:00 | 01:01:03 | 00:00:00 | |
| DO3MHA-11 | 2026-09-05 23:34:46 | 46.72513 | 7.21952 | 95° | 58km/h | 11906m | 5.7m/s | -53.5°C | 38.9% | 0hPa | 2.7V | 00:00:00 | 01:01:00 | 00:00:00 | |
| DB0UT-7 | 2026-09-05 23:34:45 | 46.72514 | 7.21928 | 94° | 62km/h | 11900m | 5.5m/s | -53.5°C | 39.0% | 0hPa | 2.7V | 00:00:00 | 00:00:00 | 00:00:00 | |
| DO3MHA-12 | 2026-09-05 23:34:39 | 46.72522 | 7.21804 | 99° | 62km/h | 11869m | 5.5m/s | -53.2°C | 38.0% | 0hPa | 2.7V | 00:00:00 | 01:00:53 | 00:00:00 | |
| DO3MHA-11 | 2026-09-05 23:34:36 | 46.72531 | 7.21737 | 104° | 62km/h | 11854m | 4.4m/s | -53.0°C | 37.4% | 0hPa | 2.7V | 00:00:00 | 01:00:50 | 00:00:00 | |
| DB0ND-19 | 2026-09-05 23:34:34 | 46.72538 | 7.21691 | 102° | 60km/h | 11843m | 4.9m/s | -53.0°C | 29.6% | -1.0hPa | 2.7V | 00:00:00 | 00:00:00 | 00:00:00 | |
| DO3MHA-12 | 2026-09-05 23:34:29 | 46.72552 | 7.21582 | 99° | 64km/h | 11812m | 9.0m/s | -52.7°C | 35.4% | 0hPa | 2.7V | 00:00:00 | 01:00:43 | 00:00:00 | |
| DO3MHA-11 | 2026-09-05 23:34:26 | 46.72558 | 7.21514 | 98° | 64km/h | 11792m | 4.9m/s | -52.5°C | 34.9% | 0hPa | 2.7V | 00:00:00 | 01:00:40 | 08:30:00 | |
| DO3MHA-12 | 2026-09-05 23:34:19 | 46.72583 | 7.21351 | 101° | 60km/h | 11752m | 4.9m/s | -52.2°C | 34.8% | 0hPa | 2.7V | 00:00:00 | 01:00:33 | 08:30:00 | |
| DO3MHA-11 | 2026-09-05 23:34:16 | 46.72592 | 7.21283 | 102° | 60km/h | 11734m | 4.1m/s | -52.1°C | 34.0% | 0hPa | 2.7V | 00:00:00 | 01:00:30 | 00:00:00 | |
| DB0UT-7 | 2026-09-05 23:34:15 | 46.72595 | 7.21261 | 102° | 62km/h | 11728m | 9.0m/s | -52.0°C | 33.4% | 0hPa | 2.7V | 00:00:00 | 01:00:29 | 00:00:00 | |
| DO3MHA-12 | 2026-09-05 23:34:09 | 46.72616 | 7.21134 | 106° | 66km/h | 11688m | 4.4m/s | -51.7°C | 31.8% | 0hPa | 2.7V | 00:00:00 | 01:00:23 | 00:00:00 | |
| DO3MHA-11 | 2026-09-05 23:34:06 | 46.72626 | 7.21065 | 100° | 66km/h | 11667m | 4.7m/s | -51.5°C | 30.8% | 0hPa | 2.7V | 00:00:00 | 01:00:20 | 00:00:00 | |
| DB0ND-19 | 2026-09-05 23:34:03 | 46.72633 | 7.20992 | 98° | 64km/h | 11647m | 3.0m/s | -51.4°C | 24.7% | -1.0hPa | 2.7V | 00:00:00 | 00:00:00 | 00:00:00 | |
| DO3MHA-12 | 2026-09-05 23:33:59 | 46.72667 | 7.20897 | 112° | 60km/h | 11624m | 6.1m/s | -51.1°C | 30.2% | 0hPa | 2.7V | 00:00:00 | 01:00:13 | 00:00:00 | |
| DO3MHA-11 | 2026-09-05 23:33:56 | 46.72667 | 7.20835 | 106° | 60km/h | 11606m | 4.8m/s | -50.9°C | 30.3% | 0hPa | 2.7V | 00:00:00 | 01:00:10 | 00:00:00 | |
| DH7VM-15 | 2026-09-05 23:33:52 | 46.72676 | 7.20775 | 103° | 60km/h | 11588m | 5.0m/s | 0°C | 0% | 0hPa | 2.7V | 00:00:00 | 00:00:00 | 00:00:00 | |
| DO3MHA-12 | 2026-09-05 23:33:49 | 46.72696 | 7.20685 | 111° | 57km/h | 11565m | 3.9m/s | -50.6°C | 29.3% | 0hPa | 2.7V | 00:00:00 | 01:00:03 | 00:00:00 | |
| DB0UT-7 | 2026-09-05 23:33:45 | 46.72719 | 7.20603 | 115° | 57km/h | 11538m | 8.8m/s | -50.3°C | 28.9% | 0hPa | 2.7V | 00:00:00 | 00:00:00 | 00:00:00 | |
| DO3MHA-12 | 2026-09-05 23:33:39 | 46.72740 | 7.20487 | 97° | 58km/h | 11501m | 8.5m/s | -49.9°C | 27.5% | 0hPa | 2.7V | 00:00:00 | 00:59:53 | 00:00:00 | |
| DO3MHA-11 | 2026-09-05 23:33:36 | 46.72745 | 7.20425 | 100° | 60km/h | 11482m | 8.0m/s | -49.8°C | 28.1% | 0hPa | 2.7V | 00:00:00 | 00:59:50 | 00:00:00 | |
| DB0ND-19 | 2026-09-05 23:33:32 | 46.72762 | 7.20344 | 111° | 58km/h | 11457m | 6.4m/s | -49.6°C | 23.5% | -1.0hPa | 2.7V | 00:00:00 | 00:00:00 | 00:00:00 | |
| DH7VM-15 | 2026-09-05 23:33:31 | 46.72762 | 7.20344 | 113° | 58km/h | 11457m | 6.4m/s | 0°C | 0% | 0hPa | 2.7V | 00:00:00 | 00:00:00 | 00:00:00 | |
| DO3MHA-12 | 2026-09-05 23:33:29 | 46.72778 | 7.20282 | 107° | 58km/h | 11441m | 6.5m/s | 0°C | 0% | 0hPa | 2.7V | 00:00:00 | 00:59:43 | 00:00:00 | |
| DO3MHA-11 | 2026-09-05 23:33:26 | 46.72790 | 7.20212 | 104° | 55km/h | 11423m | 7.1m/s | -49.3°C | 28.4% | 0hPa | 2.7V | 00:00:00 | 00:59:40 | 00:00:00 | |
| DO3MHA-12 | 2026-09-05 23:33:19 | 46.72819 | 7.20079 | 106° | 58km/h | 11381m | 7.0m/s | 0°C | 0% | 0hPa | 2.7V | 00:00:00 | 00:59:33 | 00:00:00 | |
| DO3MHA-11 | 2026-09-05 23:33:16 | 46.72827 | 7.20018 | 98° | 58km/h | 11365m | 8.8m/s | -48.8°C | 27.5% | 0hPa | 2.7V | 00:00:00 | 00:59:30 | 00:00:00 | |
| DB0UT-7 | 2026-09-05 23:33:15 | 46.72829 | 7.19996 | 100° | 57km/h | 11358m | 5.9m/s | -48.7°C | 27.6% | 0hPa | 2.7V | 00:00:00 | 00:59:29 | 00:00:00 | |
| DO3MHA-12 | 2026-09-05 23:33:09 | 46.72848 | 7.19866 | 106° | 55km/h | 11325m | 5.9m/s | 0°C | 0% | 0hPa | 2.7V | 00:00:00 | 00:59:23 | 00:00:00 | |
| DO3MHA-11 | 2026-09-05 23:33:06 | 46.72861 | 7.19808 | 110° | 53km/h | 11308m | 6.8m/s | -48.3°C | 27.8% | 0hPa | 2.7V | 00:00:00 | 00:59:20 | 00:00:00 | |
| DB0ND-19 | 2026-09-05 23:33:02 | 46.72879 | 7.19706 | 100° | 51km/h | 11280m | 5.7m/s | -48.1°C | 21.3% | -1.0hPa | 2.7V | 00:00:00 | 00:00:00 | 00:00:00 | |
| DO3MHA-12 | 2026-09-05 23:32:59 | 46.72884 | 7.19671 | 102° | 57km/h | 11266m | 5.8m/s | 0°C | 0% | 0hPa | 2.7V | 00:00:00 | 00:59:13 | 00:00:00 | |
| DO3MHA-11 | 2026-09-05 23:32:56 | 46.72891 | 7.19616 | 102° | 58km/h | 11248m | 3.6m/s | -47.8°C | 26.5% | 0hPa | 2.7V | 00:00:00 | 00:59:10 | 08:30:00 | |
| DO3MHA-12 | 2026-09-05 23:32:49 | 46.72917 | 7.19469 | 102° | 60km/h | 11211m | 5.6m/s | 0°C | 0% | 0hPa | 2.7V | 00:00:00 | 00:59:03 | 00:00:00 | |
| DO3MHA-11 | 2026-09-05 23:32:46 | 46.72926 | 7.19405 | 104° | 60km/h | 11197m | 5.9m/s | -47.4°C | 25.0% | 0hPa | 2.7V | 00:00:00 | 00:59:00 | 00:00:00 | |
| DB0UT-7 | 2026-09-05 23:32:45 | 46.72930 | 7.19383 | 105° | 58km/h | 11191m | 5.7m/s | -47.3°C | 24.3% | 0hPa | 2.7V | 00:00:00 | 00:00:00 | 00:00:00 | |
| DO3MHA-11 | 2026-09-05 23:32:36 | 46.72962 | 7.19192 | 103° | 57km/h | 11135m | 5.7m/s | -46.8°C | 22.9% | 0hPa | 2.7V | 00:00:00 | 00:58:50 | 00:00:00 | |
| DB0ND-19 | 2026-09-05 23:32:30 | 46.72985 | 7.19007 | 99° | 58km/h | 11084m | 4.3m/s | -46.5°C | 17.5% | -1.0hPa | 2.7V | 00:00:00 | 00:00:00 | 00:00:00 | |
| DO3MHA-11 | 2026-09-05 23:32:26 | 46.72987 | 7.18986 | 103° | 58km/h | 11079m | 5.7m/s | -46.4°C | 21.8% | 0hPa | 2.7V | 00:00:00 | 00:58:40 | 00:00:00 | |
| DO3MHA-11 | 2026-09-05 23:32:16 | 46.73025 | 7.18781 | 97° | 57km/h | 11032m | 4.5m/s | -46.0°C | 21.5% | 0hPa | 2.7V | 00:00:00 | 00:58:30 | 00:00:00 | |
| DB0UT-7 | 2026-09-05 23:32:15 | 46.73027 | 7.18761 | 98° | 55km/h | 11026m | 7.0m/s | -45.9°C | 21.4% | 0hPa | 2.7V | 00:00:00 | 00:58:29 | 00:00:00 | |
| DO3MHA-11 | 2026-09-05 23:32:06 | 46.73064 | 7.18578 | 104° | 57km/h | 10963m | 4.6m/s | 0°C | 0% | 0hPa | 2.7V | 00:00:00 | 00:58:20 | 00:00:00 | |
| DB0ND-19 | 2026-09-05 23:31:59 | 46.73088 | 7.18408 | 104° | 47km/h | 10911m | 6.7m/s | -45.0°C | 16.7% | -1.0hPa | 2.7V | 00:00:00 | 00:00:00 | 00:00:00 | |
| DO3MHA-11 | 2026-09-05 23:31:56 | 46.73094 | 7.18374 | 104° | 51km/h | 10898m | 7.5m/s | 0°C | 0% | 0hPa | 2.7V | 00:00:00 | 00:58:10 | 00:00:00 | |
| DO3MHA-11 | 2026-09-05 23:31:46 | 46.73138 | 7.18196 | 108° | 62km/h | 10840m | 5.5m/s | 0°C | 0% | 0hPa | 2.7V | 00:00:00 | 00:58:00 | 00:00:00 | |
| DB0UT-7 | 2026-09-05 23:31:45 | 46.73142 | 7.18175 | 105° | 58km/h | 10835m | 3.5m/s | -44.4°C | 22.4% | 0hPa | 2.7V | 00:00:00 | 00:00:00 | 00:00:00 | |
| DO3MHA-11 | 2026-09-05 23:31:36 | 46.73171 | 7.17974 | 103° | 57km/h | 10784m | 3.8m/s | 0°C | 0% | 0hPa | 2.7V | 00:00:00 | 00:57:50 | 00:00:00 | |
| DO3MHA-11 | 2026-09-05 23:31:26 | 46.73217 | 7.17774 | 114° | 58km/h | 10727m | 7.4m/s | 0°C | 0% | 0hPa | 2.7V | 00:00:00 | 00:57:40 | 00:00:00 | |
| DB0UT-7 | 2026-09-05 23:31:15 | 46.73250 | 7.17553 | 106° | 57km/h | 10667m | 5.8m/s | -42.8°C | 20.3% | 0hPa | 2.7V | 00:00:00 | 00:57:29 | 08:30:00 | |
| IW2NTF | 2026-09-05 23:30:58 | 46.73352 | 7.17111 | 105° | 57km/h | 10541m | 4.5m/s | 0°C | 0% | 0hPa | 2.7V | 00:00:00 | 00:57:07 | 00:00:00 | |
| DB0ND-19 | 2026-09-05 23:30:57 | 46.73344 | 7.17151 | 105° | 53km/h | 10549m | 4.0m/s | -42.0°C | 17.7% | -1.0hPa | 2.9V | 00:00:00 | 00:00:00 | 00:00:00 | |
| DB0UT-7 | 2026-09-05 23:30:45 | 46.73388 | 7.16954 | 109° | 57km/h | 10510m | 3.8m/s | -41.6°C | 20.8% | 0hPa | 2.9V | 00:00:00 | 00:00:00 | 00:00:00 | |
| IW2NTF | 2026-09-05 23:30:44 | 46.73407 | 7.16877 | 109° | 55km/h | 10492m | 4.1m/s | 0°C | 0% | 0hPa | 2.9V | 00:00:00 | 00:56:55 | 00:00:00 | |
| IW2NTF | 2026-09-05 23:30:34 | 46.73453 | 7.16679 | 112° | 57km/h | 10454m | 3.7m/s | 0°C | 0% | 0hPa | 2.9V | 00:00:00 | 00:56:45 | 00:00:00 | |
| IW2NTF | 2026-09-05 23:30:23 | 46.73497 | 7.16476 | 105° | 60km/h | 10413m | 3.6m/s | 0°C | 0% | 0hPa | 2.8V | 00:00:00 | 00:56:35 | 00:00:00 | |
| DB0UT-7 | 2026-09-05 23:30:16 | 46.73525 | 7.16358 | 109° | 58km/h | 10390m | 4.6m/s | -40.4°C | 18.9% | 0hPa | 2.9V | 00:00:00 | 00:56:29 | 00:00:00 | |
| IW2NTF | 2026-09-05 23:30:13 | 46.73542 | 7.16279 | 109° | 60km/h | 10374m | 4.2m/s | 0°C | 0% | 0hPa | 2.9V | 00:00:00 | 00:56:25 | 00:00:00 | |
| DB0ND-19 | 2026-09-05 23:29:55 | 46.73621 | 7.15929 | 109° | 55km/h | 10306m | 5.1m/s | -39.7°C | 14.3% | -1.0hPa | 2.9V | 00:00:00 | 00:00:00 | 00:00:00 | |
| DB0UT-7 | 2026-09-05 23:29:45 | 46.73668 | 7.15756 | 108° | 55km/h | 10270m | 3.9m/s | -39.4°C | 17.0% | 0hPa | 2.9V | 00:00:00 | 00:00:00 | 00:00:00 | |
| DB0UT-7 | 2026-09-05 23:29:15 | 46.73798 | 7.15186 | 105° | 53km/h | 10104m | 5.0m/s | -38.0°C | 17.5% | 0hPa | 2.9V | 00:00:00 | 00:55:29 | 00:00:00 | |
| IW2NTF | 2026-09-05 23:29:06 | 46.73838 | 7.14961 | 108° | 51km/h | 10039m | 4.5m/s | 0°C | 0% | 0hPa | 2.9V | 00:00:00 | 00:55:17 | 00:00:00 | |
| IW2NTF | 2026-09-05 23:28:55 | 46.73881 | 7.14763 | 106° | 53km/h | 9996m | 4.3m/s | 0°C | 0% | 0hPa | 2.9V | 00:00:00 | 00:55:07 | 00:00:00 | |
| DB0ND-19 | 2026-09-05 23:28:53 | 46.73885 | 7.14744 | 105° | 49km/h | 9992m | 3.7m/s | -37.3°C | -1.0% | -1.0hPa | 2.7V | 00:00:00 | 00:00:00 | 00:00:00 | |
| IW2NTF | 2026-09-05 23:28:48 | 46.73914 | 7.14566 | 105° | 68km/h | 9954m | 2.9m/s | 0°C | 0% | 0hPa | 2.7V | 00:00:00 | 00:54:57 | 00:00:00 | |
| DB0UT-7 | 2026-09-05 23:28:45 | 46.73905 | 7.14611 | 107° | 57km/h | 9962m | 4.4m/s | -37.0°C | 19.8% | 0hPa | 2.9V | 00:00:00 | 00:00:00 | 00:00:00 | |
| IW2NTF | 2026-09-05 23:28:37 | 46.73952 | 7.14381 | 109° | 47km/h | 9906m | 6.1m/s | 0°C | 0% | 0hPa | 2.9V | 00:00:00 | 00:54:47 | 00:00:00 | |
| DB0ND-19 | 2026-09-05 23:28:22 | 46.73996 | 7.14126 | 99° | 51km/h | 9833m | 5.5m/s | -36.0°C | -1.0% | -1.0hPa | 2.9V | 00:00:00 | 00:00:00 | 00:00:00 | |
| DB0UT-7 | 2026-09-05 23:28:15 | 46.74008 | 7.14015 | 101° | 60km/h | 9794m | 7.5m/s | -35.6°C | 19.1% | 0hPa | 2.9V | 00:00:00 | 00:54:29 | 00:00:00 | |
| DB0ND-19 | 2026-09-05 23:27:51 | 46.74086 | 7.13473 | 104° | 58km/h | 9635m | 9.0m/s | -34.2°C | -1.0% | -1.0hPa | 2.7V | 00:00:00 | 00:00:00 | 00:00:00 | |
| DB0UT-7 | 2026-09-05 23:27:45 | 46.74099 | 7.13350 | 96° | 60km/h | 9599m | 6.8m/s | -33.8°C | 17.2% | 0hPa | 2.7V | 00:00:00 | 00:00:00 | 00:00:00 | |
| IW2NTF | 2026-09-05 23:27:34 | 46.74141 | 7.13019 | 94° | 62km/h | 9519m | 5.5m/s | 0°C | 0% | 0hPa | 2.7V | 00:00:00 | 00:53:43 | 00:00:00 | |
| IW2NTF | 2026-09-05 23:27:24 | 46.74168 | 7.12795 | 99° | 68km/h | 9463m | 3.5m/s | 0°C | 0% | 0hPa | 2.9V | 00:00:00 | 00:53:33 | 00:00:00 | |
| DB0UT-7 | 2026-09-05 23:27:15 | 46.74175 | 7.12701 | 95° | 58km/h | 9443m | 6.5m/s | -32.5°C | 17.8% | 0hPa | 2.9V | 00:00:00 | 00:53:29 | 00:00:00 | |
| DB0ND-19 | 2026-09-05 23:26:49 | 46.74243 | 7.12142 | 90° | 55km/h | 9286m | 4.9m/s | -31.3°C | -1.0% | -1.0hPa | 2.9V | 00:00:00 | 00:00:00 | 00:00:00 | |
| DB0UT-7 | 2026-09-05 23:26:45 | 46.74247 | 7.12076 | 102° | 57km/h | 9268m | 5.4m/s | -31.1°C | 18.2% | 0hPa | 2.9V | 00:00:00 | 00:00:00 | 08:30:00 | |
| DB0UT-7 | 2026-09-05 23:26:15 | 46.74318 | 7.11469 | 95° | 57km/h | 9079m | 5.2m/s | -29.6°C | 18.1% | 0hPa | 2.9V | 00:00:00 | 00:52:29 | 00:00:00 | |
| DB0ND-19 | 2026-09-05 23:25:46 | 46.74408 | 7.10876 | 99° | 57km/h | 8904m | 5.1m/s | -28.0°C | -1.0% | -1.0hPa | 2.9V | 00:00:00 | 00:00:00 | 00:00:00 | |
| DB0UT-7 | 2026-09-05 23:25:45 | 46.74410 | 7.10856 | 101° | 57km/h | 8897m | 7.9m/s | -27.9°C | 16.1% | 0hPa | 2.9V | 00:00:00 | 00:00:00 | 00:00:00 | |
| DB0UT-7 | 2026-09-05 23:25:15 | 46.74489 | 7.10246 | 95° | 55km/h | 8722m | 7.0m/s | -26.7°C | 18.6% | 0hPa | 2.9V | 00:00:00 | 00:51:29 | 00:00:00 | |
| DB0UT-7 | 2026-09-05 23:24:45 | 46.74586 | 7.09656 | 107° | 55km/h | 8562m | 5.6m/s | -25.8°C | 25.3% | 0hPa | 2.9V | 00:00:00 | 00:00:00 | 00:00:00 | |
| DB0UT-7 | 2026-09-05 23:24:15 | 46.74738 | 7.09099 | 112° | 49km/h | 8395m | 4.4m/s | -24.6°C | 28.2% | 0hPa | 2.9V | 00:00:00 | 00:50:29 | 00:00:00 | |
| DB0UT-7 | 2026-09-05 23:23:45 | 46.74918 | 7.08619 | 113° | 55km/h | 8230m | 4.4m/s | -23.3°C | 33.0% | 0hPa | 2.9V | 00:00:00 | 00:00:00 | 00:00:00 | |
| DB0UT-7 | 2026-09-05 23:23:15 | 46.75069 | 7.08059 | 109° | 58km/h | 8079m | 3.4m/s | -22.0°C | 33.5% | 0hPa | 2.9V | 00:00:00 | 00:49:29 | 00:00:00 | |
| DB0UT-7 | 2026-09-05 23:22:45 | 46.75250 | 7.07475 | 116° | 53km/h | 7936m | 6.8m/s | -20.8°C | 34.0% | 0hPa | 2.9V | 00:00:00 | 00:00:00 | 00:00:00 | |
| DB0ND-19 | 2026-09-05 23:22:40 | 46.75437 | 7.06975 | 125° | 49km/h | 7765m | 4.9m/s | -20.1°C | 41.0% | -1.0hPa | 2.9V | 00:00:00 | 00:00:00 | 00:00:00 | |
| DB0UT-7 | 2026-09-05 23:22:15 | 46.75444 | 7.06959 | 125° | 60km/h | 7761m | 3.4m/s | -20.0°C | 43.4% | 0hPa | 2.9V | 00:00:00 | 00:48:29 | 08:30:00 | |
| DB0ND-19 | 2026-09-05 23:22:09 | 46.75487 | 7.06840 | 112° | 60km/h | 7728m | 6.6m/s | -19.7°C | 40.4% | -1.0hPa | 2.9V | 00:00:00 | 00:00:00 | 00:00:00 | |
| DB0UT-7 | 2026-09-05 23:21:45 | 46.75632 | 7.06353 | 118° | 62km/h | 7589m | 6.3m/s | -18.6°C | 43.2% | 0hPa | 2.9V | 00:00:00 | 00:00:00 | 00:00:00 | |
| DB0ND-19 | 2026-09-05 23:21:38 | 46.75679 | 7.06207 | 110° | 53km/h | 7547m | 5.7m/s | -18.4°C | 43.1% | -1.0hPa | 2.9V | 00:00:00 | 00:00:00 | 00:00:00 | |
| DB0UT-7 | 2026-09-05 23:21:15 | 46.75836 | 7.05742 | 110° | 58km/h | 7415m | 6.4m/s | -17.7°C | 53.1% | 0hPa | 2.9V | 00:00:00 | 00:47:29 | 00:00:00 | |
| DB0ND-19 | 2026-09-05 23:21:07 | 46.75884 | 7.05584 | 110° | 58km/h | 7367m | 4.7m/s | -17.5°C | 51.0% | -1.0hPa | 2.9V | 00:00:00 | 00:00:00 | 00:00:00 | |
| DB0UT-7 | 2026-09-05 23:20:45 | 46.76006 | 7.05144 | 115° | 55km/h | 7233m | 5.7m/s | -16.3°C | 54.7% | 0hPa | 2.9V | 00:00:00 | 00:00:00 | 00:00:00 | |
| DB0UT-7 | 2026-09-05 23:20:15 | 46.76170 | 7.04580 | 117° | 55km/h | 7049m | 3.6m/s | -14.8°C | 57.8% | 0hPa | 2.9V | 00:00:00 | 00:46:29 | 00:00:00 | |
| DB0ND-19 | 2026-09-05 23:20:05 | 46.76286 | 7.04204 | 108° | 46km/h | 6924m | 5.8m/s | -13.8°C | 51.1% | -1.0hPa | 2.9V | 00:00:00 | 00:00:00 | 00:00:00 | |
| DB0ND-19 | 2026-09-05 23:19:34 | 46.76418 | 7.03835 | 116° | 47km/h | 6792m | 3.8m/s | -12.5°C | 46.1% | -1.0hPa | 2.9V | 00:00:00 | 00:00:00 | 00:00:00 | |
| DB0UT-7 | 2026-09-05 23:19:08 | 46.76587 | 7.03429 | 110° | 47km/h | 6657m | 5.5m/s | -11.2°C | 40.7% | 0hPa | 2.9V | 00:00:00 | 00:00:00 | 00:00:00 | |
| DB0ND-19 | 2026-09-05 23:19:04 | 46.76608 | 7.03356 | 112° | 38km/h | 6628m | 8.1m/s | -11.0°C | 35.4% | -1.0hPa | 2.9V | 00:00:00 | 00:00:00 | 00:00:00 | |
| DB0UT-7 | 2026-09-05 23:18:38 | 46.76730 | 7.02956 | 106° | 46km/h | 6490m | 7.3m/s | -9.9°C | 35.4% | 0hPa | 2.9V | 00:00:00 | 00:44:52 | 00:00:00 | |
| DB0ND-19 | 2026-09-05 23:18:32 | 46.76761 | 7.02843 | 119° | 51km/h | 6447m | 6.9m/s | -9.6°C | 35.6% | -1.0hPa | 2.9V | 00:00:00 | 00:00:00 | 00:00:00 | |
| DB0UT-7 | 2026-09-05 23:18:08 | 46.76893 | 7.02513 | 114° | 51km/h | 6297m | 5.6m/s | -8.3°C | 39.9% | 0hPa | 2.9V | 00:00:00 | 00:00:00 | 00:00:00 | |
| DB0ND-19 | 2026-09-05 23:18:01 | 46.76961 | 7.02310 | 122° | 57km/h | 6234m | 5.9m/s | 0°C | -1.0% | -1.0hPa | 2.9V | 00:00:00 | 00:00:00 | 00:00:00 | |
| DB0ND-19 | 2026-09-05 23:17:30 | 46.77136 | 7.01778 | 124° | 51km/h | 6048m | 4.7m/s | 0°C | -1.0% | -1.0hPa | 2.9V | 00:00:00 | 00:00:00 | 00:00:00 | |
| DB0UT-7 | 2026-09-05 23:17:17 | 46.77271 | 7.01556 | 128° | 53km/h | 5972m | 7.5m/s | -6.1°C | 41.9% | 0hPa | 2.9V | 00:00:00 | 00:00:00 | 08:30:00 | |
| DB0ND-19 | 2026-09-05 23:16:28 | 46.77771 | 7.00806 | 128° | 46km/h | 5659m | 7.2m/s | 0°C | -1.0% | -1.0hPa | 2.9V | 00:00:00 | 00:00:00 | 00:00:00 | |
| DB0UT-7 | 2026-09-05 23:15:51 | 46.78015 | 7.00527 | 148° | 57km/h | 5548m | 3.9m/s | -3.3°C | 41.3% | 0hPa | 2.9V | 00:00:00 | 00:00:00 | 00:00:00 | |
| DB0UT-7 | 2026-09-05 23:15:21 | 46.78322 | 7.00094 | 123° | 51km/h | 5414m | 5.0m/s | -2.5°C | 41.1% | 0hPa | 2.9V | 00:00:00 | 00:41:35 | 00:00:00 | |
| DB0UT-7 | 2026-09-05 23:14:51 | 46.78608 | 6.99723 | 136° | 53km/h | 5232m | 3.9m/s | -1.3°C | 40.4% | 0hPa | 0V | 00:00:00 | 00:00:00 | 00:00:00 |